Observation data for Persimmon Gap on 01/19/2019      Previous  Date  Next       Current Mesonet Observations  Soil Data  Daily Summary Page  Observations in Plain Language
KPG1 190600Z 35011KT 15/M02 A3008 RMK A01 T01491020  RH  031%=      5-min Rain = 0
KPG1 190601Z 35010KT 15/M02 A3008 RMK A01 T01491021  RH  031%=      5-min Rain = 0
KPG1 190602Z 35011KT 15/M02 A3008 RMK A01 T01491021  RH  031%=      5-min Rain = 0
KPG1 190603Z 35009KT 15/M02 A3008 RMK A01 T01491021  RH  031%=      5-min Rain = 0
KPG1 190604Z 35008KT 15/M02 A3008 RMK A01 T01491021  RH  031%=      5-min Rain = 0
KPG1 190605Z 35008KT 15/M02 A3008 RMK A01 T01491021  RH  031%=      5-min Rain = 0
KPG1 190606Z 35010KT 15/M02 A3008 RMK A01 T01481021  RH  031%=      5-min Rain = 0
KPG1 190607Z 35009KT 15/M02 A3008 RMK A01 T01481021  RH  031%=      5-min Rain = 0
KPG1 190608Z 35009KT 15/M02 A3008 RMK A01 T01481022  RH  031%=      5-min Rain = 0
KPG1 190609Z 00007KT 15/M02 A3008 RMK A01 T01481021  RH  031%=      5-min Rain = 0
KPG1 190610Z 35009KT 15/M02 A3008 RMK A01 T01471021  RH  031%=      5-min Rain = 0
KPG1 190611Z 35010KT 15/M02 A3008 RMK A01 T01471023  RH  031%=      5-min Rain = 0
KPG1 190612Z 36008KT 15/M02 A3008 RMK A01 T01471022  RH  031%=      5-min Rain = 0
KPG1 190613Z 35006KT 15/M02 A3009 RMK A01 T01471023  RH  031%=      5-min Rain = 0
KPG1 190614Z 34008G13KT 15/M02 A3009 RMK A01 T01461023  RH  031%=      5-min Rain = 0
KPG1 190615Z 35011KT 15/M02 A3009 RMK A01 T01461024  RH  031%=      5-min Rain = 0
KPG1 190616Z 34010KT 15/M03 A3009 RMK A01 T01471026  RH  030%=      5-min Rain = 0
KPG1 190617Z 33010KT 15/M03 A3009 RMK A01 T01491026  RH  030%=      5-min Rain = 0
KPG1 190618Z 34008KT 15/M03 A3009 RMK A01 T01491027  RH  030%=      5-min Rain = 0
KPG1 190619Z 34010G15KT 15/M03 A3009 RMK A01 T01491028  RH  029%=      5-min Rain = 0
KPG1 190620Z 34009KT 15/M03 A3009 RMK A01 T01491029  RH  029%=      5-min Rain = 0
KPG1 190621Z 34013KT 15/M03 A3009 RMK A01 T01501030  RH  029%=      5-min Rain = 0
KPG1 190622Z 34009KT 15/M03 A3009 RMK A01 T01511030  RH  029%=      5-min Rain = 0
KPG1 190623Z 33009KT 15/M03 A3009 RMK A01 T01511030  RH  029%=      5-min Rain = 0
KPG1 190624Z 34010KT 15/M03 A3009 RMK A01 T01511031  RH  028%=      5-min Rain = 0
KPG1 190625Z 33006KT 15/M03 A3009 RMK A01 T01521031  RH  028%=      5-min Rain = 0
KPG1 190626Z 33007KT 15/M03 A3009 RMK A01 T01521030  RH  028%=      5-min Rain = 0
KPG1 190627Z 33007KT 15/M03 A3009 RMK A01 T01501031  RH  029%=      5-min Rain = 0
KPG1 190628Z 34006KT 15/M03 A3009 RMK A01 T01501031  RH  029%=      5-min Rain = 0
KPG1 190629Z 32010KT 15/M03 A3009 RMK A01 T01491032  RH  029%=      5-min Rain = 0
KPG1 190630Z 32008G13KT 15/M03 A3009 RMK A01 T01491033  RH  028%=      5-min Rain = 0
KPG1 190631Z 33008KT 15/M03 A3009 RMK A01 T01511033  RH  028%=      5-min Rain = 0
KPG1 190632Z 33010KT 15/M03 A3009 RMK A01 T01511033  RH  028%=      5-min Rain = 0
KPG1 190633Z 32008KT 15/M03 A3009 RMK A01 T01511033  RH  028%=      5-min Rain = 0
KPG1 190634Z 32007KT 15/M03 A301 RMK A01 T01521032  RH  028%=      5-min Rain = 0
KPG1 190635Z 32007KT 15/M03 A301 RMK A01 T01511032  RH  028%=      5-min Rain = 0
KPG1 190636Z 33006KT 15/M03 A301 RMK A01 T01511032  RH  028%=      5-min Rain = 0
KPG1 190637Z 32008KT 15/M03 A301 RMK A01 T01501032  RH  028%=      5-min Rain = 0
KPG1 190638Z 33007KT 15/M03 A301 RMK A01 T01501032  RH  028%=      5-min Rain = 0
KPG1 190639Z 32010KT 15/M03 A301 RMK A01 T01501032  RH  028%=      5-min Rain = 0
KPG1 190640Z 31007KT 15/M03 A301 RMK A01 T01511032  RH  028%=      5-min Rain = 0
KPG1 190641Z 32006KT 15/M03 A301 RMK A01 T01511032  RH  028%=      5-min Rain = 0
KPG1 190642Z 32006KT 15/M03 A301 RMK A01 T01511031  RH  028%=      5-min Rain = 0
KPG1 190643Z 31006KT 15/M03 A301 RMK A01 T01491031  RH  029%=      5-min Rain = 0
KPG1 190644Z 31007KT 15/M03 A301 RMK A01 T01491032  RH  029%=      5-min Rain = 0
KPG1 190645Z 32005KT 15/M03 A301 RMK A01 T01491032  RH  029%=      5-min Rain = 0
KPG1 190646Z 32005KT 15/M03 A301 RMK A01 T01491032  RH  028%=      5-min Rain = 0
KPG1 190647Z 31004KT 15/M03 A301 RMK A01 T01491032  RH  029%=      5-min Rain = 0
KPG1 190648Z 32003KT 15/M03 A301 RMK A01 T01491031  RH  029%=      5-min Rain = 0
KPG1 190649Z 33004KT 15/M03 A301 RMK A01 T01481031  RH  029%=      5-min Rain = 0
KPG1 190650Z 31004KT 15/M03 A301 RMK A01 T01471032  RH  029%=      5-min Rain = 0
KPG1 190651Z 30003KT 15/M03 A301 RMK A01 T01481032  RH  029%=      5-min Rain = 0
KPG1 190652Z 29003KT 15/M03 A301 RMK A01 T01481032  RH  029%=      5-min Rain = 0
KPG1 190653Z 30003KT 15/M03 A301 RMK A01 T01481031  RH  029%=      5-min Rain = 0
KPG1 190654Z 31004KT 15/M03 A301 RMK A01 T01461028  RH  030%=      5-min Rain = 0
KPG1 190655Z 30003KT 14/M03 A301 RMK A01 T01431030  RH  030%=      5-min Rain = 0
KPG1 190656Z 27003KT 14/M03 A301 RMK A01 T01431031  RH  030%=      5-min Rain = 0
KPG1 190657Z 31003KT 14/M03 A301 RMK A01 T01431029  RH  030%=      5-min Rain = 0
KPG1 190658Z 30003KT 14/M03 A301 RMK A01 T01431030  RH  030%=      5-min Rain = 0
KPG1 190659Z 34002KT 14/M03 A301 RMK A01 T01431031  RH  030%=      5-min Rain = 0
KPG1 190700Z 32003KT 14/M03 A301 RMK A01 T01441029  RH  030%=      5-min Rain = 0
KPG1 190701Z 32004KT 14/M03 A3011 RMK A01 T01431029  RH  030%=      5-min Rain = 0
KPG1 190702Z 33004KT 14/M03 A3011 RMK A01 T01431029  RH  030%=      5-min Rain = 0
KPG1 190703Z 31006KT 14/M03 A3011 RMK A01 T01411028  RH  031%=      5-min Rain = 0
KPG1 190704Z 31005KT 14/M03 A3011 RMK A01 T01411029  RH  031%=      5-min Rain = 0
KPG1 190705Z 32003KT 14/M03 A3011 RMK A01 T01421029  RH  031%=      5-min Rain = 0
KPG1 190706Z 33003KT 14/M03 A3011 RMK A01 T01421029  RH  031%=      5-min Rain = 0
KPG1 190707Z 32003KT 14/M03 A3011 RMK A01 T01421029  RH  031%=      5-min Rain = 0
KPG1 190708Z 32004KT 14/M03 A3011 RMK A01 T01421029  RH  031%=      5-min Rain = 0
KPG1 190709Z 33004KT 14/M03 A3011 RMK A01 T01421029  RH  031%=      5-min Rain = 0
KPG1 190710Z 31003KT 14/M03 A3011 RMK A01 T01421029  RH  030%=      5-min Rain = 0
KPG1 190711Z 30004KT 14/M03 A3011 RMK A01 T01421029  RH  030%=      5-min Rain = 0
KPG1 190712Z 31005KT 14/M03 A3011 RMK A01 T01411029  RH  031%=      5-min Rain = 0
KPG1 190713Z 33004KT 14/M03 A3011 RMK A01 T01411030  RH  030%=      5-min Rain = 0
KPG1 190714Z 31003KT 14/M03 A3011 RMK A01 T01421031  RH  030%=      5-min Rain = 0
KPG1 190715Z 31003KT 14/M03 A3012 RMK A01 T01431030  RH  030%=      5-min Rain = 0
KPG1 190716Z 32003KT 14/M03 A3012 RMK A01 T01441031  RH  030%=      5-min Rain = 0
KPG1 190717Z 31002KT 14/M03 A3012 RMK A01 T01441030  RH  030%=      5-min Rain = 0
KPG1 190718Z 29003KT 14/M03 A3012 RMK A01 T01431033  RH  029%=      5-min Rain = 0
KPG1 190719Z 30004KT 14/M04 A3012 RMK A01 T01441035  RH  029%=      5-min Rain = 0
KPG1 190720Z 31003KT 15/M03 A3012 RMK A01 T01451033  RH  029%=      5-min Rain = 0
KPG1 190721Z 35002KT 14/M03 A3012 RMK A01 T01441033  RH  029%=      5-min Rain = 0
KPG1 190722Z 34003KT 14/M03 A3012 RMK A01 T01421031  RH  030%=      5-min Rain = 0
KPG1 190723Z 01005KT 14/M03 A3012 RMK A01 T01391032  RH  031%=      5-min Rain = 0
KPG1 190724Z 00003KT 14/M03 A3012 RMK A01 T01361028  RH  032%=      5-min Rain = 0
KPG1 190725Z 35004KT 13/M03 A3012 RMK A01 T01341033  RH  031%=      5-min Rain = 0
KPG1 190726Z 34004KT 14/M04 A3012 RMK A01 T01371036  RH  030%=      5-min Rain = 0
KPG1 190727Z 33005KT 14/M04 A3012 RMK A01 T01381035  RH  030%=      5-min Rain = 0
KPG1 190728Z 32006KT 14/M04 A3012 RMK A01 T01401036  RH  029%=      5-min Rain = 0
KPG1 190729Z 31009KT 14/M04 A3013 RMK A01 T01411040  RH  028%=      5-min Rain = 0
KPG1 190730Z 34008KT 14/M04 A3013 RMK A01 T01431044  RH  027%=      5-min Rain = 0
KPG1 190731Z 34008KT 14/M04 A3013 RMK A01 T01441043  RH  027%=      5-min Rain = 0
KPG1 190732Z 34007KT 14/M04 A3013 RMK A01 T01431043  RH  027%=      5-min Rain = 0
KPG1 190733Z 34007KT 14/M04 A3013 RMK A01 T01411044  RH  028%=      5-min Rain = 0
KPG1 190734Z 36006KT 14/M04 A3013 RMK A01 T01411043  RH  028%=      5-min Rain = 0
KPG1 190735Z 01005KT 14/M04 A3013 RMK A01 T01391042  RH  028%=      5-min Rain = 0
KPG1 190736Z 35008KT 14/M04 A3013 RMK A01 T01371043  RH  028%=      5-min Rain = 0
KPG1 190737Z 35006KT 14/M04 A3013 RMK A01 T01371043  RH  028%=      5-min Rain = 0
KPG1 190738Z 00006KT 14/M04 A3013 RMK A01 T01361042  RH  029%=      5-min Rain = 0
KPG1 190739Z 01006KT 14/M04 A3013 RMK A01 T01351042  RH  029%=      5-min Rain = 0
KPG1 190740Z 01006KT 13/M04 A3014 RMK A01 T01341040  RH  030%=      5-min Rain = 0
KPG1 190741Z 01005KT 13/M04 A3014 RMK A01 T01321039  RH  030%=      5-min Rain = 0
KPG1 190742Z 01005KT 13/M04 A3014 RMK A01 T01301039  RH  031%=      5-min Rain = 0
KPG1 190743Z 02006KT 13/M04 A3014 RMK A01 T01291039  RH  031%=      5-min Rain = 0
KPG1 190744Z 02006KT 13/M04 A3014 RMK A01 T01281038  RH  031%=      5-min Rain = 0
KPG1 190745Z 02006KT 13/M04 A3014 RMK A01 T01271036  RH  032%=      5-min Rain = 0
KPG1 190746Z 03005KT 13/M04 A3014 RMK A01 T01261035  RH  032%=      5-min Rain = 0
KPG1 190747Z 02006KT 12/M04 A3014 RMK A01 T01241035  RH  033%=      5-min Rain = 0
KPG1 190748Z 01005KT 12/M03 A3014 RMK A01 T01231034  RH  033%=      5-min Rain = 0
KPG1 190749Z 01007KT 12/M03 A3014 RMK A01 T01211034  RH  034%=      5-min Rain = 0
KPG1 190750Z 00006KT 12/M04 A3014 RMK A01 T01201036  RH  033%=      5-min Rain = 0
KPG1 190751Z 01007KT 12/M04 A3014 RMK A01 T01201037  RH  033%=      5-min Rain = 0
KPG1 190752Z 00008KT 12/M04 A3014 RMK A01 T01201037  RH  033%=      5-min Rain = 0
KPG1 190753Z 01007KT 12/M04 A3014 RMK A01 T01211039  RH  033%=      5-min Rain = 0
KPG1 190754Z 36007KT 12/M04 A3014 RMK A01 T01201038  RH  033%=      5-min Rain = 0
KPG1 190755Z 36007KT 12/M04 A3014 RMK A01 T01201039  RH  033%=      5-min Rain = 0
KPG1 190756Z 00007KT 12/M04 A3014 RMK A01 T01211041  RH  032%=      5-min Rain = 0
KPG1 190757Z 36006KT 12/M04 A3014 RMK A01 T01211041  RH  032%=      5-min Rain = 0
KPG1 190758Z 35006KT 12/M04 A3014 RMK A01 T01211041  RH  032%=      5-min Rain = 0
KPG1 190759Z 35007KT 12/M04 A3014 RMK A01 T01211042  RH  032%=      5-min Rain = 0
KPG1 190800Z 36007KT 12/M04 A3014 RMK A01 T01211043  RH  031%=      5-min Rain = 0
KPG1 190801Z 36007KT 12/M04 A3014 RMK A01 T01211044  RH  031%=      5-min Rain = 0
KPG1 190802Z 36009KT 12/M05 A3014 RMK A01 T01221047  RH  031%=      5-min Rain = 0
KPG1 190803Z 35010KT 12/M05 A3014 RMK A01 T01231049  RH  030%=      5-min Rain = 0
KPG1 190804Z 36007KT 12/M05 A3014 RMK A01 T01241050  RH  029%=      5-min Rain = 0
KPG1 190805Z 36010KT 12/M05 A3014 RMK A01 T01241050  RH  029%=      5-min Rain = 0
KPG1 190806Z 36009KT 12/M05 A3014 RMK A01 T01241052  RH  029%=      5-min Rain = 0
KPG1 190807Z 35009KT 12/M05 A3015 RMK A01 T01241053  RH  029%=      5-min Rain = 0
KPG1 190808Z 35009KT 12/M05 A3015 RMK A01 T01241054  RH  028%=      5-min Rain = 0
KPG1 190809Z 35009KT 12/M06 A3015 RMK A01 T01241056  RH  028%=      5-min Rain = 0
KPG1 190810Z 35010KT 12/M06 A3015 RMK A01 T01241057  RH  028%=      5-min Rain = 0
KPG1 190811Z 35009KT 13/M06 A3015 RMK A01 T01251058  RH  027%=      5-min Rain = 0
KPG1 190812Z 34009KT 13/M06 A3015 RMK A01 T01251058  RH  027%=      5-min Rain = 0
KPG1 190813Z 35009KT 12/M06 A3015 RMK A01 T01241059  RH  027%=      5-min Rain = 0
KPG1 190814Z 36007KT 12/M06 A3015 RMK A01 T01241061  RH  027%=      5-min Rain = 0
KPG1 190815Z 35008KT 12/M06 A3015 RMK A01 T01241059  RH  027%=      5-min Rain = 0
KPG1 190816Z 35010KT 12/M06 A3015 RMK A01 T01241060  RH  027%=      5-min Rain = 0
KPG1 190817Z 36009KT 12/M06 A3015 RMK A01 T01241062  RH  027%=      5-min Rain = 0
KPG1 190818Z 35011KT 12/M06 A3015 RMK A01 T01241061  RH  027%=      5-min Rain = 0
KPG1 190819Z 35009KT 13/M06 A3015 RMK A01 T01251063  RH  026%=      5-min Rain = 0
KPG1 190820Z 35009KT 13/M06 A3015 RMK A01 T01251064  RH  026%=      5-min Rain = 0
KPG1 190821Z 35010KT 13/M06 A3015 RMK A01 T01251063  RH  026%=      5-min Rain = 0
KPG1 190822Z 00009KT 13/M06 A3016 RMK A01 T01251063  RH  026%=      5-min Rain = 0
KPG1 190823Z 00008KT 12/M06 A3016 RMK A01 T01241063  RH  026%=      5-min Rain = 0
KPG1 190824Z 35009KT 12/M06 A3016 RMK A01 T01231063  RH  027%=      5-min Rain = 0
KPG1 190825Z 36011KT 12/M06 A3016 RMK A01 T01231064  RH  027%=      5-min Rain = 0
KPG1 190826Z 35011KT 12/M06 A3016 RMK A01 T01231064  RH  026%=      5-min Rain = 0
KPG1 190827Z 35009KT 12/M06 A3016 RMK A01 T01241064  RH  026%=      5-min Rain = 0
KPG1 190828Z 36010KT 12/M06 A3016 RMK A01 T01241064  RH  026%=      5-min Rain = 0
KPG1 190829Z 35010KT 12/M07 A3016 RMK A01 T01241065  RH  026%=      5-min Rain = 0
KPG1 190830Z 35010KT 12/M06 A3016 RMK A01 T01231064  RH  027%=      5-min Rain = 0
KPG1 190831Z 35010KT 12/M06 A3016 RMK A01 T01221064  RH  027%=      5-min Rain = 0
KPG1 190832Z 35009KT 12/M06 A3016 RMK A01 T01221064  RH  027%=      5-min Rain = 0
KPG1 190833Z 35011KT 12/M07 A3016 RMK A01 T01221065  RH  027%=      5-min Rain = 0
KPG1 190834Z 35010KT 12/M07 A3016 RMK A01 T01221066  RH  026%=      5-min Rain = 0
KPG1 190835Z 35009KT 12/M07 A3016 RMK A01 T01221065  RH  027%=      5-min Rain = 0
KPG1 190836Z 35010KT 12/M07 A3016 RMK A01 T01211066  RH  027%=      5-min Rain = 0
KPG1 190837Z 35009KT 12/M07 A3016 RMK A01 T01211067  RH  026%=      5-min Rain = 0
KPG1 190838Z 35009KT 12/M07 A3016 RMK A01 T01211066  RH  026%=      5-min Rain = 0
KPG1 190839Z 35010KT 12/M07 A3017 RMK A01 T01211066  RH  027%=      5-min Rain = 0
KPG1 190840Z 35009KT 12/M07 A3017 RMK A01 T01201066  RH  027%=      5-min Rain = 0
KPG1 190841Z 35010KT 12/M07 A3017 RMK A01 T01201066  RH  027%=      5-min Rain = 0
KPG1 190842Z 35008KT 12/M07 A3017 RMK A01 T01201066  RH  027%=      5-min Rain = 0
KPG1 190843Z 35008KT 12/M07 A3017 RMK A01 T01201067  RH  027%=      5-min Rain = 0
KPG1 190844Z 35008KT 12/M07 A3017 RMK A01 T01201066  RH  027%=      5-min Rain = 0
KPG1 190845Z 35008KT 12/M07 A3017 RMK A01 T01191066  RH  027%=      5-min Rain = 0
KPG1 190846Z 35008KT 12/M07 A3017 RMK A01 T01191067  RH  027%=      5-min Rain = 0
KPG1 190847Z 36007KT 12/M07 A3017 RMK A01 T01191067  RH  027%=      5-min Rain = 0
KPG1 190848Z 36007KT 12/M07 A3017 RMK A01 T01181066  RH  027%=      5-min Rain = 0
KPG1 190849Z 36007KT 12/M07 A3017 RMK A01 T01181067  RH  027%=      5-min Rain = 0
KPG1 190850Z 35008KT 12/M07 A3017 RMK A01 T01181066  RH  027%=      5-min Rain = 0
KPG1 190851Z 36007KT 12/M07 A3017 RMK A01 T01181067  RH  027%=      5-min Rain = 0
KPG1 190852Z 36008KT 12/M07 A3017 RMK A01 T01171067  RH  027%=      5-min Rain = 0
KPG1 190853Z 36009KT 12/M07 A3017 RMK A01 T01181068  RH  027%=      5-min Rain = 0
KPG1 190854Z 35008KT 12/M07 A3017 RMK A01 T01191068  RH  027%=      5-min Rain = 0
KPG1 190855Z 00008KT 12/M07 A3017 RMK A01 T01181068  RH  027%=      5-min Rain = 0
KPG1 190856Z 00009KT 12/M07 A3017 RMK A01 T01191068  RH  027%=      5-min Rain = 0
KPG1 190857Z 36006KT 12/M07 A3018 RMK A01 T01191068  RH  026%=      5-min Rain = 0
KPG1 190858Z 00006KT 12/M07 A3018 RMK A01 T01181068  RH  027%=      5-min Rain = 0
KPG1 190859Z 36006KT 12/M07 A3018 RMK A01 T01171067  RH  027%=      5-min Rain = 0
KPG1 190900Z 01006KT 12/M07 A3018 RMK A01 T01161068  RH  027%=      5-min Rain = 0
KPG1 190901Z 01005KT 12/M07 A3018 RMK A01 T01151068  RH  027%=      5-min Rain = 0
KPG1 190902Z 35006KT 12/M07 A3018 RMK A01 T01151067  RH  028%=      5-min Rain = 0
KPG1 190903Z 36006KT 11/M07 A3018 RMK A01 T01131067  RH  028%=      5-min Rain = 0
KPG1 190904Z 00006KT 11/M07 A3018 RMK A01 T01131068  RH  028%=      5-min Rain = 0
KPG1 190905Z 35007KT 11/M07 A3018 RMK A01 T01131067  RH  028%=      5-min Rain = 0
KPG1 190906Z 00006KT 11/M07 A3018 RMK A01 T01121067  RH  028%=      5-min Rain = 0
KPG1 190907Z 00006KT 11/M07 A3018 RMK A01 T01121066  RH  028%=      5-min Rain = 0
KPG1 190908Z 00006KT 11/M07 A3018 RMK A01 T01111065  RH  029%=      5-min Rain = 0
KPG1 190909Z 00006KT 11/M07 A3018 RMK A01 T01091065  RH  029%=      5-min Rain = 0
KPG1 190910Z 01006KT 11/M07 A3018 RMK A01 T01091065  RH  029%=      5-min Rain = 0
KPG1 190911Z 36006KT 11/M07 A3018 RMK A01 T01081065  RH  029%=      5-min Rain = 0
KPG1 190912Z 36008KT 11/M07 A3018 RMK A01 T01081065  RH  029%=      5-min Rain = 0
KPG1 190913Z 01007KT 11/M07 A3018 RMK A01 T01101067  RH  028%=      5-min Rain = 0
KPG1 190914Z 36008KT 11/M07 A3018 RMK A01 T01111066  RH  028%=      5-min Rain = 0
KPG1 190915Z 01009KT 11/M07 A3018 RMK A01 T01121068  RH  028%=      5-min Rain = 0
KPG1 190916Z 00008KT 11/M07 A3018 RMK A01 T01141069  RH  027%=      5-min Rain = 0
KPG1 190917Z 35008KT 11/M07 A3018 RMK A01 T01141069  RH  027%=      5-min Rain = 0
KPG1 190918Z 35009KT 11/M07 A3018 RMK A01 T01141070  RH  027%=      5-min Rain = 0
KPG1 190919Z 35008G14KT 11/M07 A3018 RMK A01 T01141070  RH  027%=      5-min Rain = 0
KPG1 190920Z 35015KT 12/M07 A3018 RMK A01 T01161073  RH  026%=      5-min Rain = 0
KPG1 190921Z 35015KT 12/M07 A3018 RMK A01 T01191073  RH  025%=      5-min Rain = 0
KPG1 190922Z 35015G20KT 12/M07 A3019 RMK A01 T01191074  RH  025%=      5-min Rain = 0
KPG1 190923Z 35013KT 12/M07 A3019 RMK A01 T01201074  RH  025%=      5-min Rain = 0
KPG1 190924Z 35010KT 12/M07 A3019 RMK A01 T01191073  RH  025%=      5-min Rain = 0
KPG1 190925Z 36010KT 12/M07 A3019 RMK A01 T01171072  RH  026%=      5-min Rain = 0
KPG1 190926Z 01011KT 12/M07 A3019 RMK A01 T01151071  RH  027%=      5-min Rain = 0
KPG1 190927Z 35011G16KT 11/M07 A3019 RMK A01 T01131070  RH  027%=      5-min Rain = 0
KPG1 190928Z 35012KT 11/M07 A302 RMK A01 T01131071  RH  027%=      5-min Rain = 0
KPG1 190929Z 36012KT 11/M07 A302 RMK A01 T01131072  RH  027%=      5-min Rain = 0
KPG1 190930Z 35013KT 11/M07 A302 RMK A01 T01131072  RH  027%=      5-min Rain = 0
KPG1 190931Z 34012KT 11/M07 A302 RMK A01 T01131073  RH  026%=      5-min Rain = 0
KPG1 190932Z 35013KT 11/M07 A302 RMK A01 T01141074  RH  026%=      5-min Rain = 0
KPG1 190933Z 34012G17KT 11/M07 A302 RMK A01 T01141074  RH  026%=      5-min Rain = 0
KPG1 190934Z 35015KT 11/M08 A3019 RMK A01 T01141075  RH  026%=      5-min Rain = 0
KPG1 190935Z 34013KT 11/M08 A3019 RMK A01 T01131076  RH  026%=      5-min Rain = 0
KPG1 190936Z 34015G20KT 11/M08 A3019 RMK A01 T01141077  RH  025%=      5-min Rain = 0
KPG1 190937Z 33013KT 12/M08 A3019 RMK A01 T01161079  RH  025%=      5-min Rain = 0
KPG1 190938Z 33013KT 12/M08 A3019 RMK A01 T01161079  RH  025%=      5-min Rain = 0
KPG1 190939Z 34011KT 12/M08 A302 RMK A01 T01161079  RH  025%=      5-min Rain = 0
KPG1 190940Z 34013KT 12/M08 A302 RMK A01 T01161079  RH  025%=      5-min Rain = 0
KPG1 190941Z 33013KT 12/M08 A302 RMK A01 T01161080  RH  025%=      5-min Rain = 0
KPG1 190942Z 33009KT 12/M08 A302 RMK A01 T01171081  RH  024%=      5-min Rain = 0
KPG1 190943Z 34012KT 12/M08 A302 RMK A01 T01171080  RH  024%=      5-min Rain = 0
KPG1 190944Z 32010KT 12/M08 A302 RMK A01 T01161080  RH  025%=      5-min Rain = 0
KPG1 190945Z 34009KT 12/M08 A302 RMK A01 T01161081  RH  024%=      5-min Rain = 0
KPG1 190946Z 34010KT 12/M08 A302 RMK A01 T01161081  RH  024%=      5-min Rain = 0
KPG1 190947Z 35008KT 12/M08 A302 RMK A01 T01161080  RH  025%=      5-min Rain = 0
KPG1 190948Z 34009KT 12/M08 A302 RMK A01 T01151079  RH  025%=      5-min Rain = 0
KPG1 190949Z 35011KT 11/M08 A302 RMK A01 T01141079  RH  025%=      5-min Rain = 0
KPG1 190950Z 34010KT 11/M08 A302 RMK A01 T01131079  RH  025%=      5-min Rain = 0
KPG1 190951Z 34007KT 11/M08 A302 RMK A01 T01121079  RH  025%=      5-min Rain = 0
KPG1 190952Z 35011KT 11/M08 A302 RMK A01 T01121079  RH  025%=      5-min Rain = 0
KPG1 190953Z 35008KT 11/M08 A302 RMK A01 T01131080  RH  025%=      5-min Rain = 0
KPG1 190954Z 35009KT 11/M08 A3021 RMK A01 T01131079  RH  025%=      5-min Rain = 0
KPG1 190955Z 36009KT 11/M08 A3021 RMK A01 T01131079  RH  025%=      5-min Rain = 0
KPG1 190956Z 34011KT 11/M08 A3021 RMK A01 T01121078  RH  026%=      5-min Rain = 0
KPG1 190957Z 35010KT 11/M08 A3021 RMK A01 T01111079  RH  026%=      5-min Rain = 0
KPG1 190958Z 35009KT 11/M08 A3021 RMK A01 T01111079  RH  025%=      5-min Rain = 0
KPG1 190959Z 33009KT 11/M08 A3021 RMK A01 T01111078  RH  026%=      5-min Rain = 0
KPG1 191000Z 34009KT 11/M08 A3021 RMK A01 T01111079  RH  026%=      5-min Rain = 0
KPG1 191001Z 34010KT 11/M08 A3021 RMK A01 T01111079  RH  026%=      5-min Rain = 0
KPG1 191002Z 34010KT 11/M08 A3021 RMK A01 T01111080  RH  025%=      5-min Rain = 0
KPG1 191003Z 34010KT 11/M08 A3021 RMK A01 T01121079  RH  025%=      5-min Rain = 0
KPG1 191004Z 34009KT 11/M08 A3021 RMK A01 T01121080  RH  025%=      5-min Rain = 0
KPG1 191005Z 33008KT 11/M08 A3021 RMK A01 T01131080  RH  025%=      5-min Rain = 0
KPG1 191006Z 34009KT 11/M08 A3021 RMK A01 T01121080  RH  025%=      5-min Rain = 0
KPG1 191007Z 33008KT 11/M08 A3021 RMK A01 T01121079  RH  025%=      5-min Rain = 0
KPG1 191008Z 32006KT 11/M08 A3021 RMK A01 T01121078  RH  026%=      5-min Rain = 0
KPG1 191009Z 31008KT 11/M08 A3021 RMK A01 T01111078  RH  026%=      5-min Rain = 0
KPG1 191010Z 33008KT 11/M08 A3021 RMK A01 T01101078  RH  026%=      5-min Rain = 0
KPG1 191011Z 33008KT 11/M08 A3021 RMK A01 T01111079  RH  026%=      5-min Rain = 0
KPG1 191012Z 32008KT 11/M08 A3021 RMK A01 T01121078  RH  026%=      5-min Rain = 0
KPG1 191013Z 32008KT 11/M08 A3021 RMK A01 T01121078  RH  026%=      5-min Rain = 0
KPG1 191014Z 34007KT 11/M08 A3022 RMK A01 T01121078  RH  026%=      5-min Rain = 0
KPG1 191015Z 36007KT 11/M08 A3022 RMK A01 T01121077  RH  026%=      5-min Rain = 0
KPG1 191016Z 34006KT 11/M08 A3022 RMK A01 T01111076  RH  026%=      5-min Rain = 0
KPG1 191017Z 34009KT 11/M08 A3022 RMK A01 T01091076  RH  027%=      5-min Rain = 0
KPG1 191018Z 33010KT 11/M08 A3022 RMK A01 T01091075  RH  027%=      5-min Rain = 0
KPG1 191019Z 33007KT 11/M08 A3022 RMK A01 T01101075  RH  027%=      5-min Rain = 0
KPG1 191020Z 34010KT 11/M08 A3022 RMK A01 T01101075  RH  027%=      5-min Rain = 0
KPG1 191021Z 36007KT 11/M07 A3022 RMK A01 T01101074  RH  027%=      5-min Rain = 0
KPG1 191022Z 33007KT 11/M07 A3022 RMK A01 T01091073  RH  027%=      5-min Rain = 0
KPG1 191023Z 34006KT 11/M07 A3022 RMK A01 T01071073  RH  027%=      5-min Rain = 0
KPG1 191024Z 33005KT 11/M07 A3022 RMK A01 T01071073  RH  028%=      5-min Rain = 0
KPG1 191025Z 32006KT 11/M07 A3022 RMK A01 T01061072  RH  028%=      5-min Rain = 0
KPG1 191026Z 34005KT 11/M07 A3022 RMK A01 T01061072  RH  028%=      5-min Rain = 0
KPG1 191027Z 35006KT 11/M07 A3023 RMK A01 T01061070  RH  028%=      5-min Rain = 0
KPG1 191028Z 35009KT 10/M07 A3023 RMK A01 T01041070  RH  029%=      5-min Rain = 0
KPG1 191029Z 35009KT 10/M07 A3023 RMK A01 T01041070  RH  029%=      5-min Rain = 0
KPG1 191030Z 34010KT 10/M07 A3023 RMK A01 T01041070  RH  029%=      5-min Rain = 0
KPG1 191031Z 33009KT 10/M07 A3023 RMK A01 T01041069  RH  029%=      5-min Rain = 0
KPG1 191032Z 34009KT 11/M07 A3023 RMK A01 T01051069  RH  029%=      5-min Rain = 0
KPG1 191033Z 35010KT 11/M07 A3023 RMK A01 T01051069  RH  029%=      5-min Rain = 0
KPG1 191034Z 35009KT 11/M07 A3023 RMK A01 T01051068  RH  029%=      5-min Rain = 0
KPG1 191035Z 35009KT 11/M07 A3023 RMK A01 T01051068  RH  029%=      5-min Rain = 0
KPG1 191036Z 34010KT 10/M07 A3023 RMK A01 T01041068  RH  029%=      5-min Rain = 0
KPG1 191037Z 35010KT 10/M07 A3023 RMK A01 T01041067  RH  029%=      5-min Rain = 0
KPG1 191038Z 34008KT 10/M07 A3023 RMK A01 T01031066  RH  030%=      5-min Rain = 0
KPG1 191039Z 35007KT 10/M07 A3023 RMK A01 T01031065  RH  030%=      5-min Rain = 0
KPG1 191040Z 35009KT 10/M07 A3024 RMK A01 T01011065  RH  030%=      5-min Rain = 0
KPG1 191041Z 35010KT 10/M07 A3024 RMK A01 T01011065  RH  031%=      5-min Rain = 0
KPG1 191042Z 35010KT 10/M06 A3024 RMK A01 T01011064  RH  031%=      5-min Rain = 0
KPG1 191043Z 34008KT 10/M06 A3024 RMK A01 T01021064  RH  031%=      5-min Rain = 0
KPG1 191044Z 35009KT 10/M06 A3024 RMK A01 T01011062  RH  031%=      5-min Rain = 0
KPG1 191045Z 36010KT 10/M06 A3024 RMK A01 T01001062  RH  031%=      5-min Rain = 0
KPG1 191046Z 35009KT 10/M06 A3024 RMK A01 T01001062  RH  031%=      5-min Rain = 0
KPG1 191047Z 36009KT 10/M06 A3024 RMK A01 T00991062  RH  032%=      5-min Rain = 0
KPG1 191048Z 00008KT 10/M06 A3024 RMK A01 T00981061  RH  032%=      5-min Rain = 0
KPG1 191049Z 00007KT 10/M06 A3024 RMK A01 T00981061  RH  032%=      5-min Rain = 0
KPG1 191050Z 00007KT 10/M06 A3024 RMK A01 T00971059  RH  033%=      5-min Rain = 0
KPG1 191051Z 00008KT 10/M06 A3024 RMK A01 T00951059  RH  033%=      5-min Rain = 0
KPG1 191052Z 34008KT 09/M06 A3024 RMK A01 T00941058  RH  034%=      5-min Rain = 0
KPG1 191053Z 36008KT 09/M06 A3024 RMK A01 T00941058  RH  033%=      5-min Rain = 0
KPG1 191054Z 35007KT 10/M06 A3024 RMK A01 T00951058  RH  033%=      5-min Rain = 0
KPG1 191055Z 36007KT 10/M06 A3024 RMK A01 T00961057  RH  034%=      5-min Rain = 0
KPG1 191056Z 36007KT 10/M06 A3024 RMK A01 T00951056  RH  034%=      5-min Rain = 0
KPG1 191057Z 35007KT 09/M06 A3024 RMK A01 T00941056  RH  034%=      5-min Rain = 0
KPG1 191058Z 34009KT 09/M06 A3024 RMK A01 T00941055  RH  035%=      5-min Rain = 0
KPG1 191059Z 35010KT 09/M05 A3024 RMK A01 T00941050  RH  036%=      5-min Rain = 0
KPG1 191100Z 34008KT 10/M05 A3024 RMK A01 T00961048  RH  036%=      5-min Rain = 0
KPG1 191101Z 35008KT 10/M05 A3024 RMK A01 T00971047  RH  036%=      5-min Rain = 0
KPG1 191102Z 35009KT 10/M05 A3024 RMK A01 T00971047  RH  036%=      5-min Rain = 0
KPG1 191103Z 34008KT 10/M05 A3024 RMK A01 T00961045  RH  037%=      5-min Rain = 0
KPG1 191104Z 34007KT 10/M04 A3024 RMK A01 T00951044  RH  037%=      5-min Rain = 0
KPG1 191105Z 35008KT 10/M04 A3024 RMK A01 T00951043  RH  038%=      5-min Rain = 0
KPG1 191106Z 34009KT 09/M04 A3024 RMK A01 T00941042  RH  038%=      5-min Rain = 0
KPG1 191107Z 36006KT 09/M04 A3024 RMK A01 T00941040  RH  039%=      5-min Rain = 0
KPG1 191108Z 35006KT 09/M04 A3024 RMK A01 T00941040  RH  039%=      5-min Rain = 0
KPG1 191109Z 34012KT 09/M04 A3024 RMK A01 T00931039  RH  039%=      5-min Rain = 0
KPG1 191110Z 34013KT 09/M04 A3024 RMK A01 T00931036  RH  040%=      5-min Rain = 0
KPG1 191111Z 34009KT 10/M03 A3024 RMK A01 T00951034  RH  040%=      5-min Rain = 0
KPG1 191112Z 35009KT 10/M03 A3025 RMK A01 T00951034  RH  040%=      5-min Rain = 0
KPG1 191113Z 34010KT 10/M03 A3024 RMK A01 T00951033  RH  040%=      5-min Rain = 0
KPG1 191114Z 35010KT 10/M03 A3024 RMK A01 T00951032  RH  041%=      5-min Rain = 0
KPG1 191115Z 34012G17KT 10/M03 A3024 RMK A01 T00951032  RH  041%=      5-min Rain = 0
KPG1 191116Z 35009G15KT 10/M03 A3024 RMK A01 T00951031  RH  041%=      5-min Rain = 0
KPG1 191117Z 35011KT 09/M03 A3024 RMK A01 T00941030  RH  041%=      5-min Rain = 0
KPG1 191118Z 35008KT 09/M03 A3024 RMK A01 T00941029  RH  042%=      5-min Rain = 0
KPG1 191119Z 35008KT 09/M03 A3024 RMK A01 T00931029  RH  042%=      5-min Rain = 0
KPG1 191120Z 35010KT 09/M03 A3024 RMK A01 T00931029  RH  042%=      5-min Rain = 0
KPG1 191121Z 00009KT 09/M03 A3025 RMK A01 T00931028  RH  043%=      5-min Rain = 0
KPG1 191122Z 36007KT 09/M03 A3025 RMK A01 T00931027  RH  043%=      5-min Rain = 0
KPG1 191123Z 35009KT 09/M03 A3025 RMK A01 T00921027  RH  043%=      5-min Rain = 0
KPG1 191124Z 35008KT 09/M03 A3025 RMK A01 T00921027  RH  043%=      5-min Rain = 0
KPG1 191125Z 36008KT 09/M03 A3025 RMK A01 T00921027  RH  043%=      5-min Rain = 0
KPG1 191126Z 02009KT 09/M03 A3025 RMK A01 T00921027  RH  043%=      5-min Rain = 0
KPG1 191127Z 36010KT 09/M03 A3025 RMK A01 T00911026  RH  043%=      5-min Rain = 0
KPG1 191128Z 36008KT 09/M03 A3025 RMK A01 T00911027  RH  043%=      5-min Rain = 0
KPG1 191129Z 00008KT 09/M03 A3025 RMK A01 T00911027  RH  044%=      5-min Rain = 0
KPG1 191130Z 36011KT 09/M03 A3025 RMK A01 T00911026  RH  043%=      5-min Rain = 0
KPG1 191131Z 36009KT 09/M03 A3025 RMK A01 T00921026  RH  043%=      5-min Rain = 0
KPG1 191132Z 00008KT 09/M03 A3025 RMK A01 T00921026  RH  043%=      5-min Rain = 0
KPG1 191133Z 01010G16KT 09/M03 A3025 RMK A01 T00911026  RH  044%=      5-min Rain = 0
KPG1 191134Z 36009KT 09/M03 A3025 RMK A01 T00921026  RH  044%=      5-min Rain = 0
KPG1 191135Z 35010KT 09/M03 A3025 RMK A01 T00911026  RH  044%=      5-min Rain = 0
KPG1 191136Z 35009G14KT 09/M03 A3025 RMK A01 T00911026  RH  044%=      5-min Rain = 0
KPG1 191137Z 35009KT 09/M03 A3025 RMK A01 T00911026  RH  044%=      5-min Rain = 0
KPG1 191138Z 00009KT 09/M03 A3025 RMK A01 T00911026  RH  044%=      5-min Rain = 0
KPG1 191139Z 35008KT 09/M03 A3025 RMK A01 T00911026  RH  044%=      5-min Rain = 0
KPG1 191140Z 36006KT 09/M03 A3025 RMK A01 T00901026  RH  044%=      5-min Rain = 0
KPG1 191141Z 35008KT 09/M03 A3025 RMK A01 T00891026  RH  044%=      5-min Rain = 0
KPG1 191142Z 35009KT 09/M03 A3025 RMK A01 T00881026  RH  044%=      5-min Rain = 0
KPG1 191143Z 34009KT 09/M03 A3025 RMK A01 T00891026  RH  044%=      5-min Rain = 0
KPG1 191144Z 34008KT 09/M03 A3025 RMK A01 T00901026  RH  044%=      5-min Rain = 0
KPG1 191145Z 35009KT 09/M03 A3025 RMK A01 T00901026  RH  044%=      5-min Rain = 0
KPG1 191146Z 34009KT 09/M03 A3025 RMK A01 T00901026  RH  044%=      5-min Rain = 0
KPG1 191147Z 34011KT 09/M03 A3025 RMK A01 T00901026  RH  044%=      5-min Rain = 0
KPG1 191148Z 33008KT 09/M03 A3025 RMK A01 T00911026  RH  044%=      5-min Rain = 0
KPG1 191149Z 33009KT 09/M03 A3025 RMK A01 T00911026  RH  044%=      5-min Rain = 0
KPG1 191150Z 35009KT 09/M03 A3026 RMK A01 T00911026  RH  044%=      5-min Rain = 0
KPG1 191151Z 35010KT 09/M03 A3026 RMK A01 T00911026  RH  044%=      5-min Rain = 0
KPG1 191152Z 34007KT 09/M03 A3026 RMK A01 T00911026  RH  044%=      5-min Rain = 0
KPG1 191153Z 34008KT 09/M03 A3026 RMK A01 T00891026  RH  044%=      5-min Rain = 0
KPG1 191154Z 35008KT 09/M03 A3026 RMK A01 T00901026  RH  044%=      5-min Rain = 0
KPG1 191155Z 34008KT 09/M03 A3026 RMK A01 T00901026  RH  044%=      5-min Rain = 0
KPG1 191156Z 33012KT 09/M03 A3026 RMK A01 T00901026  RH  044%=      5-min Rain = 0
KPG1 191157Z 35007KT 09/M03 A3026 RMK A01 T00911026  RH  044%=      5-min Rain = 0
KPG1 191158Z 36006KT 09/M03 A3026 RMK A01 T00911026  RH  044%=      5-min Rain = 0
KPG1 191159Z 35008KT 09/M03 A3026 RMK A01 T00901026  RH  044%=      5-min Rain = 0
KPG1 191200Z 34009KT 09/M03 A3027 RMK A01 T00891026  RH  044%=      5-min Rain = 0
KPG1 191201Z 33009KT 09/M03 A3027 RMK A01 T00881026  RH  045%=      5-min Rain = 0
KPG1 191202Z 35007KT 09/M03 A3027 RMK A01 T00891026  RH  044%=      5-min Rain = 0
KPG1 191203Z 35007KT 09/M03 A3027 RMK A01 T00901026  RH  044%=      5-min Rain = 0
KPG1 191204Z 35009KT 09/M03 A3027 RMK A01 T00901026  RH  044%=      5-min Rain = 0
KPG1 191205Z 36010KT 09/M03 A3027 RMK A01 T00891026  RH  044%=      5-min Rain = 0
KPG1 191206Z 34010KT 09/M03 A3027 RMK A01 T00891026  RH  044%=      5-min Rain = 0
KPG1 191207Z 35010KT 09/M03 A3027 RMK A01 T00901026  RH  044%=      5-min Rain = 0
KPG1 191208Z 36011KT 09/M03 A3027 RMK A01 T00901025  RH  044%=      5-min Rain = 0
KPG1 191209Z 35010KT 09/M03 A3027 RMK A01 T00891025  RH  045%=      5-min Rain = 0
KPG1 191210Z 35011KT 09/M02 A3028 RMK A01 T00891024  RH  045%=      5-min Rain = 0
KPG1 191211Z 00011G16KT 09/M02 A3028 RMK A01 T00891024  RH  045%=      5-min Rain = 0
KPG1 191212Z 35011KT 09/M02 A3028 RMK A01 T00891024  RH  045%=      5-min Rain = 0
KPG1 191213Z 35010KT 09/M02 A3028 RMK A01 T00891023  RH  045%=      5-min Rain = 0
KPG1 191214Z 35008KT 09/M02 A3028 RMK A01 T00881023  RH  046%=      5-min Rain = 0
KPG1 191215Z 34013KT 09/M02 A3028 RMK A01 T00871022  RH  046%=      5-min Rain = 0
KPG1 191216Z 35012KT 09/M02 A3028 RMK A01 T00871022  RH  046%=      5-min Rain = 0
KPG1 191217Z 34012KT 09/M02 A3028 RMK A01 T00881022  RH  046%=      5-min Rain = 0
KPG1 191218Z 34015G20KT 09/M02 A3028 RMK A01 T00881022  RH  046%=      5-min Rain = 0
KPG1 191219Z 34015KT 09/M02 A3028 RMK A01 T00881022  RH  046%=      5-min Rain = 0
KPG1 191220Z 34012KT 09/M02 A3028 RMK A01 T00891022  RH  046%=      5-min Rain = 0
KPG1 191221Z 34014KT 09/M02 A3029 RMK A01 T00891022  RH  046%=      5-min Rain = 0
KPG1 191222Z 35011KT 09/M02 A3029 RMK A01 T00881022  RH  046%=      5-min Rain = 0
KPG1 191223Z 35011KT 09/M02 A3029 RMK A01 T00881021  RH  046%=      5-min Rain = 0
KPG1 191224Z 00010KT 09/M02 A3029 RMK A01 T00871021  RH  047%=      5-min Rain = 0
KPG1 191225Z 01009KT 09/M02 A3029 RMK A01 T00861021  RH  047%=      5-min Rain = 0
KPG1 191226Z 00007KT 08/M02 A3029 RMK A01 T00841021  RH  048%=      5-min Rain = 0
KPG1 191227Z 35008KT 08/M02 A3029 RMK A01 T00831020  RH  048%=      5-min Rain = 0
KPG1 191228Z 35011KT 08/M02 A3029 RMK A01 T00821020  RH  049%=      5-min Rain = 0
KPG1 191229Z 35008KT 08/M02 A3029 RMK A01 T00811020  RH  049%=      5-min Rain = 0
KPG1 191230Z 36007KT 08/M02 A3029 RMK A01 T00821020  RH  049%=      5-min Rain = 0
KPG1 191231Z 35008KT 08/M02 A3029 RMK A01 T00811020  RH  049%=      5-min Rain = 0
KPG1 191232Z 35008KT 08/M02 A3029 RMK A01 T00801020  RH  049%=      5-min Rain = 0
KPG1 191233Z 34007KT 08/M02 A3029 RMK A01 T00801020  RH  049%=      5-min Rain = 0
KPG1 191234Z 35007KT 08/M02 A3029 RMK A01 T00801019  RH  050%=      5-min Rain = 0
KPG1 191235Z 35007KT 08/M02 A303 RMK A01 T00791019  RH  050%=      5-min Rain = 0
KPG1 191236Z 35008KT 08/M02 A303 RMK A01 T00791019  RH  050%=      5-min Rain = 0
KPG1 191237Z 35008KT 08/M02 A303 RMK A01 T00791020  RH  050%=      5-min Rain = 0
KPG1 191238Z 00007KT 08/M02 A303 RMK A01 T00791019  RH  050%=      5-min Rain = 0
KPG1 191239Z 35006KT 08/M02 A303 RMK A01 T00791020  RH  050%=      5-min Rain = 0
KPG1 191240Z 34008KT 08/M02 A303 RMK A01 T00791020  RH  050%=      5-min Rain = 0
KPG1 191241Z 34009KT 08/M02 A303 RMK A01 T00791019  RH  050%=      5-min Rain = 0
KPG1 191242Z 34007KT 08/M02 A303 RMK A01 T00791020  RH  050%=      5-min Rain = 0
KPG1 191243Z 01008KT 08/M02 A303 RMK A01 T00801020  RH  049%=      5-min Rain = 0
KPG1 191244Z 01008KT 08/M02 A303 RMK A01 T00801020  RH  049%=      5-min Rain = 0
KPG1 191245Z 01009KT 08/M02 A303 RMK A01 T00811020  RH  049%=      5-min Rain = 0
KPG1 191246Z 36011KT 08/M02 A303 RMK A01 T00811020  RH  049%=      5-min Rain = 0
KPG1 191247Z 00008KT 08/M02 A303 RMK A01 T00811020  RH  049%=      5-min Rain = 0
KPG1 191248Z 01009KT 08/M02 A303 RMK A01 T00811020  RH  049%=      5-min Rain = 0
KPG1 191249Z 01011KT 08/M02 A303 RMK A01 T00811020  RH  049%=      5-min Rain = 0
KPG1 191250Z 36009KT 08/M02 A303 RMK A01 T00801020  RH  049%=      5-min Rain = 0
KPG1 191251Z 36007KT 08/M02 A303 RMK A01 T00791020  RH  050%=      5-min Rain = 0
KPG1 191252Z 35010KT 08/M02 A303 RMK A01 T00781020  RH  050%=      5-min Rain = 0
KPG1 191253Z 35009KT 08/M02 A3031 RMK A01 T00781020  RH  050%=      5-min Rain = 0
KPG1 191254Z 00009KT 08/M02 A3031 RMK A01 T00791020  RH  050%=      5-min Rain = 0
KPG1 191255Z 35009KT 08/M02 A3031 RMK A01 T00781020  RH  050%=      5-min Rain = 0
KPG1 191256Z 36009KT 08/M02 A3031 RMK A01 T00781020  RH  050%=      5-min Rain = 0
KPG1 191257Z 34010KT 08/M02 A3031 RMK A01 T00781019  RH  050%=      5-min Rain = 0
KPG1 191258Z 34010KT 08/M02 A3031 RMK A01 T00771019  RH  050%=      5-min Rain = 0
KPG1 191259Z 35011KT 08/M02 A3031 RMK A01 T00771020  RH  050%=      5-min Rain = 0
KPG1 191300Z 36011KT 08/M02 A3031 RMK A01 T00781020  RH  050%=      5-min Rain = 0
KPG1 191301Z 01009KT 08/M02 A3031 RMK A01 T00781020  RH  050%=      5-min Rain = 0
KPG1 191302Z 36010KT 08/M02 A3031 RMK A01 T00781020  RH  050%=      5-min Rain = 0
KPG1 191303Z 35009KT 08/M02 A3031 RMK A01 T00781020  RH  050%=      5-min Rain = 0
KPG1 191304Z 35010KT 08/M02 A3031 RMK A01 T00781020  RH  050%=      5-min Rain = 0
KPG1 191305Z 36009KT 08/M02 A3031 RMK A01 T00771020  RH  050%=      5-min Rain = 0
KPG1 191306Z 36009KT 08/M02 A3031 RMK A01 T00771021  RH  050%=      5-min Rain = 0
KPG1 191307Z 36009KT 08/M02 A3031 RMK A01 T00771021  RH  050%=      5-min Rain = 0
KPG1 191308Z 00008KT 08/M02 A3031 RMK A01 T00771021  RH  050%=      5-min Rain = 0
KPG1 191309Z 35009KT 08/M02 A3031 RMK A01 T00761021  RH  050%=      5-min Rain = 0
KPG1 191310Z 36011KT 08/M02 A3031 RMK A01 T00751021  RH  050%=      5-min Rain = 0
KPG1 191311Z 36011KT 08/M02 A3031 RMK A01 T00761022  RH  050%=      5-min Rain = 0
KPG1 191312Z 35012KT 08/M02 A3032 RMK A01 T00761022  RH  050%=      5-min Rain = 0
KPG1 191313Z 35012KT 08/M02 A3031 RMK A01 T00771022  RH  050%=      5-min Rain = 0
KPG1 191314Z 35011KT 08/M02 A3032 RMK A01 T00771022  RH  049%=      5-min Rain = 0
KPG1 191315Z 35009KT 08/M02 A3032 RMK A01 T00771023  RH  049%=      5-min Rain = 0
KPG1 191316Z 35011KT 08/M02 A3032 RMK A01 T00781022  RH  049%=      5-min Rain = 0
KPG1 191317Z 35012KT 08/M02 A3032 RMK A01 T00771022  RH  049%=      5-min Rain = 0
KPG1 191318Z 35012KT 08/M02 A3032 RMK A01 T00771023  RH  049%=      5-min Rain = 0
KPG1 191319Z 35012KT 08/M02 A3032 RMK A01 T00771023  RH  049%=      5-min Rain = 0
KPG1 191320Z 35010KT 08/M02 A3032 RMK A01 T00771023  RH  049%=      5-min Rain = 0
KPG1 191321Z 35009KT 08/M02 A3032 RMK A01 T00771022  RH  049%=      5-min Rain = 0
KPG1 191322Z 35011KT 08/M02 A3032 RMK A01 T00761022  RH  050%=      5-min Rain = 0
KPG1 191323Z 36008KT 08/M02 A3032 RMK A01 T00761023  RH  049%=      5-min Rain = 0
KPG1 191324Z 00009KT 08/M02 A3032 RMK A01 T00761023  RH  050%=      5-min Rain = 0
KPG1 191325Z 36009KT 08/M02 A3032 RMK A01 T00751024  RH  050%=      5-min Rain = 0
KPG1 191326Z 36008KT 08/M02 A3032 RMK A01 T00751023  RH  050%=      5-min Rain = 0
KPG1 191327Z 00007KT 07/M02 A3032 RMK A01 T00741023  RH  050%=      5-min Rain = 0
KPG1 191328Z 35007KT 07/M02 A3032 RMK A01 T00731024  RH  050%=      5-min Rain = 0
KPG1 191329Z 01008KT 07/M03 A3032 RMK A01 T00731025  RH  050%=      5-min Rain = 0
KPG1 191330Z 01007KT 07/M03 A3032 RMK A01 T00731025  RH  050%=      5-min Rain = 0
KPG1 191331Z 01008KT 07/M03 A3032 RMK A01 T00721025  RH  050%=      5-min Rain = 0
KPG1 191332Z 36009KT 07/M03 A3033 RMK A01 T00721025  RH  050%=      5-min Rain = 0
KPG1 191333Z 36008KT 07/M03 A3033 RMK A01 T00721026  RH  050%=      5-min Rain = 0
KPG1 191334Z 00008KT 07/M03 A3033 RMK A01 T00721028  RH  049%=      5-min Rain = 0
KPG1 191335Z 36008KT 07/M03 A3033 RMK A01 T00731028  RH  049%=      5-min Rain = 0
KPG1 191336Z 01010KT 07/M03 A3033 RMK A01 T00721029  RH  049%=      5-min Rain = 0
KPG1 191337Z 01010KT 07/M03 A3033 RMK A01 T00731029  RH  048%=      5-min Rain = 0
KPG1 191338Z 00010KT 07/M03 A3033 RMK A01 T00731029  RH  048%=      5-min Rain = 0
KPG1 191339Z 36010KT 07/M03 A3033 RMK A01 T00731030  RH  048%=      5-min Rain = 0
KPG1 191340Z 35011KT 07/M03 A3032 RMK A01 T00731032  RH  047%=      5-min Rain = 0
KPG1 191341Z 36012KT 07/M03 A3032 RMK A01 T00731034  RH  047%=      5-min Rain = 0
KPG1 191342Z 36011KT 07/M04 A3032 RMK A01 T00741035  RH  046%=      5-min Rain = 0
KPG1 191343Z 35013KT 07/M04 A3032 RMK A01 T00741035  RH  046%=      5-min Rain = 0
KPG1 191344Z 36012KT 07/M04 A3032 RMK A01 T00741036  RH  046%=      5-min Rain = 0
KPG1 191345Z 35011KT 07/M04 A3032 RMK A01 T00741036  RH  045%=      5-min Rain = 0
KPG1 191346Z 36012KT 07/M04 A3032 RMK A01 T00741037  RH  045%=      5-min Rain = 0
KPG1 191347Z 35012KT 08/M04 A3032 RMK A01 T00751038  RH  045%=      5-min Rain = 0
KPG1 191348Z 35014KT 08/M04 A3032 RMK A01 T00751038  RH  045%=      5-min Rain = 0
KPG1 191349Z 35014KT 08/M04 A3032 RMK A01 T00751039  RH  044%=      5-min Rain = 0
KPG1 191350Z 35014KT 08/M04 A3032 RMK A01 T00761039  RH  044%=      5-min Rain = 0
KPG1 191351Z 35014G19KT 08/M04 A3032 RMK A01 T00761039  RH  044%=      5-min Rain = 0
KPG1 191352Z 35015KT 08/M04 A3032 RMK A01 T00761040  RH  043%=      5-min Rain = 0
KPG1 191353Z 35015KT 08/M04 A3032 RMK A01 T00761041  RH  043%=      5-min Rain = 0
KPG1 191354Z 35014KT 08/M04 A3032 RMK A01 T00771040  RH  043%=      5-min Rain = 0
KPG1 191355Z 35013KT 08/M04 A3032 RMK A01 T00771040  RH  043%=      5-min Rain = 0
KPG1 191356Z 35015KT 08/M04 A3032 RMK A01 T00761042  RH  043%=      5-min Rain = 0
KPG1 191357Z 35016KT 08/M04 A3032 RMK A01 T00761042  RH  043%=      5-min Rain = 0
KPG1 191358Z 35013KT 08/M04 A3032 RMK A01 T00761042  RH  043%=      5-min Rain = 0
KPG1 191359Z 35013KT 08/M04 A3033 RMK A01 T00761041  RH  043%=      5-min Rain = 0
KPG1 191400Z 34013KT 08/M04 A3032 RMK A01 T00751042  RH  043%=      5-min Rain = 0
KPG1 191401Z 35013KT 08/M04 A3033 RMK A01 T00751042  RH  043%=      5-min Rain = 0
KPG1 191402Z 35013KT 08/M04 A3033 RMK A01 T00751042  RH  043%=      5-min Rain = 0
KPG1 191403Z 35011KT 08/M04 A3033 RMK A01 T00751041  RH  043%=      5-min Rain = 0
KPG1 191404Z 35012KT 08/M04 A3033 RMK A01 T00751041  RH  044%=      5-min Rain = 0
KPG1 191405Z 35011KT 08/M04 A3033 RMK A01 T00751041  RH  044%=      5-min Rain = 0
KPG1 191406Z 35012KT 08/M04 A3033 RMK A01 T00751041  RH  044%=      5-min Rain = 0
KPG1 191407Z 35013KT 08/M04 A3033 RMK A01 T00751041  RH  044%=      5-min Rain = 0
KPG1 191408Z 35015KT 08/M04 A3033 RMK A01 T00751042  RH  043%=      5-min Rain = 0
KPG1 191409Z 34014KT 08/M04 A3033 RMK A01 T00761042  RH  043%=      5-min Rain = 0
KPG1 191410Z 35012KT 08/M04 A3033 RMK A01 T00771042  RH  043%=      5-min Rain = 0
KPG1 191411Z 35014KT 08/M04 A3033 RMK A01 T00771042  RH  043%=      5-min Rain = 0
KPG1 191412Z 35014KT 08/M04 A3033 RMK A01 T00771042  RH  043%=      5-min Rain = 0
KPG1 191413Z 35014KT 08/M04 A3033 RMK A01 T00771043  RH  042%=      5-min Rain = 0
KPG1 191414Z 35013KT 08/M04 A3033 RMK A01 T00771043  RH  042%=      5-min Rain = 0
KPG1 191415Z 34013KT 08/M04 A3033 RMK A01 T00781043  RH  042%=      5-min Rain = 0
KPG1 191416Z 35012KT 08/M04 A3033 RMK A01 T00771043  RH  042%=      5-min Rain = 0
KPG1 191417Z 35012KT 08/M04 A3033 RMK A01 T00771043  RH  042%=      5-min Rain = 0
KPG1 191418Z 35015KT 08/M04 A3033 RMK A01 T00781044  RH  042%=      5-min Rain = 0
KPG1 191419Z 35013KT 08/M04 A3033 RMK A01 T00781044  RH  042%=      5-min Rain = 0
KPG1 191420Z 34014KT 08/M04 A3033 RMK A01 T00781044  RH  042%=      5-min Rain = 0
KPG1 191421Z 35013KT 08/M04 A3033 RMK A01 T00781044  RH  042%=      5-min Rain = 0
KPG1 191422Z 34012KT 08/M04 A3034 RMK A01 T00791043  RH  042%=      5-min Rain = 0
KPG1 191423Z 34012KT 08/M04 A3034 RMK A01 T00791043  RH  042%=      5-min Rain = 0
KPG1 191424Z 35012KT 08/M04 A3034 RMK A01 T00801043  RH  041%=      5-min Rain = 0
KPG1 191425Z 35013KT 08/M04 A3034 RMK A01 T00801043  RH  042%=      5-min Rain = 0
KPG1 191426Z 35014KT 08/M04 A3034 RMK A01 T00801043  RH  041%=      5-min Rain = 0
KPG1 191427Z 35015KT 08/M04 A3034 RMK A01 T00801043  RH  041%=      5-min Rain = 0
KPG1 191428Z 35014KT 08/M04 A3034 RMK A01 T00801043  RH  041%=      5-min Rain = 0
KPG1 191429Z 35013KT 08/M04 A3034 RMK A01 T00811043  RH  041%=      5-min Rain = 0
KPG1 191430Z 35013KT 08/M04 A3034 RMK A01 T00811043  RH  041%=      5-min Rain = 0
KPG1 191431Z 35009KT 08/M04 A3034 RMK A01 T00811043  RH  041%=      5-min Rain = 0
KPG1 191432Z 35010KT 08/M04 A3034 RMK A01 T00811042  RH  041%=      5-min Rain = 0
KPG1 191433Z 35008KT 08/M04 A3034 RMK A01 T00811042  RH  041%=      5-min Rain = 0
KPG1 191434Z 34012KT 08/M04 A3034 RMK A01 T00811042  RH  041%=      5-min Rain = 0
KPG1 191435Z 35010KT 08/M04 A3034 RMK A01 T00821043  RH  041%=      5-min Rain = 0
KPG1 191436Z 35009KT 08/M04 A3035 RMK A01 T00821043  RH  041%=      5-min Rain = 0
KPG1 191437Z 34008KT 08/M04 A3035 RMK A01 T00831042  RH  041%=      5-min Rain = 0
KPG1 191438Z 34009KT 08/M04 A3035 RMK A01 T00831043  RH  041%=      5-min Rain = 0
KPG1 191439Z 34009KT 08/M04 A3035 RMK A01 T00841043  RH  041%=      5-min Rain = 0
KPG1 191440Z 34009KT 08/M04 A3035 RMK A01 T00841043  RH  040%=      5-min Rain = 0
KPG1 191441Z 35009KT 08/M04 A3035 RMK A01 T00841044  RH  040%=      5-min Rain = 0
KPG1 191442Z 36008KT 09/M04 A3035 RMK A01 T00851044  RH  040%=      5-min Rain = 0
KPG1 191443Z 34012KT 09/M04 A3035 RMK A01 T00851044  RH  040%=      5-min Rain = 0
KPG1 191444Z 34010KT 09/M05 A3035 RMK A01 T00851045  RH  040%=      5-min Rain = 0
KPG1 191445Z 34009KT 09/M05 A3035 RMK A01 T00851045  RH  040%=      5-min Rain = 0
KPG1 191446Z 35009KT 09/M05 A3036 RMK A01 T00861045  RH  039%=      5-min Rain = 0
KPG1 191447Z 35011KT 09/M05 A3036 RMK A01 T00861045  RH  039%=      5-min Rain = 0
KPG1 191448Z 35012KT 09/M05 A3036 RMK A01 T00861045  RH  039%=      5-min Rain = 0
KPG1 191449Z 34011KT 09/M05 A3036 RMK A01 T00851045  RH  039%=      5-min Rain = 0
KPG1 191450Z 35010KT 09/M04 A3036 RMK A01 T00851044  RH  040%=      5-min Rain = 0
KPG1 191451Z 34013KT 09/M04 A3036 RMK A01 T00851043  RH  040%=      5-min Rain = 0
KPG1 191452Z 35013KT 09/M04 A3036 RMK A01 T00861044  RH  039%=      5-min Rain = 0
KPG1 191453Z 35012KT 09/M05 A3036 RMK A01 T00861045  RH  039%=      5-min Rain = 0
KPG1 191454Z 35012KT 09/M05 A3036 RMK A01 T00861045  RH  039%=      5-min Rain = 0
KPG1 191455Z 36012KT 09/M05 A3036 RMK A01 T00861046  RH  039%=      5-min Rain = 0
KPG1 191456Z 35009KT 09/M05 A3036 RMK A01 T00871046  RH  039%=      5-min Rain = 0
KPG1 191457Z 35012KT 09/M05 A3036 RMK A01 T00881046  RH  038%=      5-min Rain = 0
KPG1 191458Z 35011KT 09/M05 A3036 RMK A01 T00881047  RH  038%=      5-min Rain = 0
KPG1 191459Z 35012KT 09/M05 A3036 RMK A01 T00891048  RH  038%=      5-min Rain = 0
KPG1 191500Z 35011KT 09/M05 A3036 RMK A01 T00891048  RH  038%=      5-min Rain = 0
KPG1 191501Z 35013G18KT 09/M05 A3036 RMK A01 T00901050  RH  037%=      5-min Rain = 0
KPG1 191502Z 35015KT 09/M05 A3036 RMK A01 T00901051  RH  037%=      5-min Rain = 0
KPG1 191503Z 35014KT 09/M05 A3036 RMK A01 T00901052  RH  036%=      5-min Rain = 0
KPG1 191504Z 34015KT 09/M05 A3036 RMK A01 T00901052  RH  036%=      5-min Rain = 0
KPG1 191505Z 34015KT 09/M05 A3036 RMK A01 T00901052  RH  036%=      5-min Rain = 0
KPG1 191506Z 35014KT 09/M05 A3036 RMK A01 T00901052  RH  036%=      5-min Rain = 0
KPG1 191507Z 35014KT 09/M05 A3036 RMK A01 T00911052  RH  036%=      5-min Rain = 0
KPG1 191508Z 35013KT 09/M05 A3036 RMK A01 T00911053  RH  036%=      5-min Rain = 0
KPG1 191509Z 35014KT 09/M05 A3036 RMK A01 T00911053  RH  036%=      5-min Rain = 0
KPG1 191510Z 35014KT 09/M05 A3036 RMK A01 T00911053  RH  036%=      5-min Rain = 0
KPG1 191511Z 35015KT 09/M06 A3036 RMK A01 T00921055  RH  035%=      5-min Rain = 0
KPG1 191512Z 35011KT 09/M06 A3037 RMK A01 T00921055  RH  035%=      5-min Rain = 0
KPG1 191513Z 35012KT 09/M05 A3037 RMK A01 T00931053  RH  035%=      5-min Rain = 0
KPG1 191514Z 35012KT 09/M05 A3037 RMK A01 T00941054  RH  035%=      5-min Rain = 0
KPG1 191515Z 35013KT 09/M06 A3037 RMK A01 T00941055  RH  034%=      5-min Rain = 0
KPG1 191516Z 00009KT 09/M05 A3037 RMK A01 T00941054  RH  035%=      5-min Rain = 0
KPG1 191517Z 01013KT 09/M05 A3037 RMK A01 T00941054  RH  035%=      5-min Rain = 0
KPG1 191518Z 00010KT 09/M05 A3037 RMK A01 T00941054  RH  035%=      5-min Rain = 0
KPG1 191519Z 35011KT 10/M05 A3037 RMK A01 T00951051  RH  035%=      5-min Rain = 0
KPG1 191520Z 01012KT 10/M05 A3037 RMK A01 T00961052  RH  035%=      5-min Rain = 0
KPG1 191521Z 36008KT 10/M05 A3037 RMK A01 T00961052  RH  035%=      5-min Rain = 0
KPG1 191522Z 35013KT 10/M05 A3037 RMK A01 T00971052  RH  035%=      5-min Rain = 0
KPG1 191523Z 36012KT 10/M05 A3037 RMK A01 T00961054  RH  034%=      5-min Rain = 0
KPG1 191524Z 35014KT 10/M05 A3037 RMK A01 T00961054  RH  034%=      5-min Rain = 0
KPG1 191525Z 36014KT 10/M06 A3037 RMK A01 T00951055  RH  034%=      5-min Rain = 0
KPG1 191526Z 35010KT 10/M05 A3038 RMK A01 T00951054  RH  034%=      5-min Rain = 0
KPG1 191527Z 35011KT 10/M05 A3038 RMK A01 T00971052  RH  035%=      5-min Rain = 0
KPG1 191528Z 01010KT 10/M05 A3038 RMK A01 T00971053  RH  034%=      5-min Rain = 0
KPG1 191529Z 01012G17KT 10/M05 A3038 RMK A01 T00971052  RH  034%=      5-min Rain = 0
KPG1 191530Z 00012G17KT 10/M05 A3038 RMK A01 T00971054  RH  034%=      5-min Rain = 0
KPG1 191531Z 00010KT 10/M05 A3038 RMK A01 T00971053  RH  034%=      5-min Rain = 0
KPG1 191532Z 00011KT 10/M05 A3038 RMK A01 T00981053  RH  034%=      5-min Rain = 0
KPG1 191533Z 00012KT 10/M05 A3038 RMK A01 T00981053  RH  034%=      5-min Rain = 0
KPG1 191534Z 01011KT 10/M05 A3038 RMK A01 T00991053  RH  034%=      5-min Rain = 0
KPG1 191535Z 01012KT 10/M05 A3038 RMK A01 T01001053  RH  034%=      5-min Rain = 0
KPG1 191536Z 01011KT 10/M05 A3038 RMK A01 T00991054  RH  034%=      5-min Rain = 0
KPG1 191537Z 01015KT 10/M05 A3038 RMK A01 T01001054  RH  033%=      5-min Rain = 0
KPG1 191538Z 00012KT 10/M06 A3038 RMK A01 T01001056  RH  033%=      5-min Rain = 0
KPG1 191539Z 36011G16KT 10/M06 A3038 RMK A01 T00991055  RH  033%=      5-min Rain = 0
KPG1 191540Z 01014KT 10/M06 A3038 RMK A01 T00991055  RH  033%=      5-min Rain = 0
KPG1 191541Z 01012KT 10/M06 A3038 RMK A01 T00991056  RH  033%=      5-min Rain = 0
KPG1 191542Z 01011KT 10/M05 A3038 RMK A01 T00991054  RH  034%=      5-min Rain = 0
KPG1 191543Z 01011KT 10/M05 A3038 RMK A01 T01001053  RH  034%=      5-min Rain = 0
KPG1 191544Z 01011G16KT 10/M06 A3038 RMK A01 T01011055  RH  033%=      5-min Rain = 0
KPG1 191545Z 01015KT 10/M06 A3038 RMK A01 T01011057  RH  033%=      5-min Rain = 0
KPG1 191546Z 01012KT 10/M06 A3039 RMK A01 T01001059  RH  032%=      5-min Rain = 0
KPG1 191547Z 36012KT 10/M06 A3039 RMK A01 T01001056  RH  033%=      5-min Rain = 0
KPG1 191548Z 36013KT 10/M06 A3039 RMK A01 T01011056  RH  033%=      5-min Rain = 0
KPG1 191549Z 01013KT 10/M06 A3039 RMK A01 T01021057  RH  032%=      5-min Rain = 0
KPG1 191550Z 01012KT 10/M06 A3039 RMK A01 T01011057  RH  032%=      5-min Rain = 0
KPG1 191551Z 01012KT 10/M06 A3039 RMK A01 T01021057  RH  032%=      5-min Rain = 0
KPG1 191552Z 01013KT 10/M06 A3039 RMK A01 T01021057  RH  032%=      5-min Rain = 0
KPG1 191553Z 00014KT 10/M06 A3039 RMK A01 T01021058  RH  032%=      5-min Rain = 0
KPG1 191554Z 00012KT 10/M06 A3039 RMK A01 T01021058  RH  032%=      5-min Rain = 0
KPG1 191555Z 01012KT 10/M06 A3039 RMK A01 T01011058  RH  032%=      5-min Rain = 0
KPG1 191556Z 00011KT 10/M06 A3039 RMK A01 T01011059  RH  032%=      5-min Rain = 0
KPG1 191557Z 02008KT 10/M06 A3039 RMK A01 T01011058  RH  032%=      5-min Rain = 0
KPG1 191558Z 00008KT 10/M05 A3039 RMK A01 T01031054  RH  033%=      5-min Rain = 0
KPG1 191559Z 02008KT 11/M05 A3039 RMK A01 T01051054  RH  032%=      5-min Rain = 0
KPG1 191600Z 01010KT 11/M05 A304 RMK A01 T01061053  RH  032%=      5-min Rain = 0
KPG1 191601Z 03010KT 11/M06 A304 RMK A01 T01061056  RH  032%=      5-min Rain = 0
KPG1 191602Z 01011KT 11/M06 A304 RMK A01 T01061057  RH  031%=      5-min Rain = 0
KPG1 191603Z 01012KT 11/M06 A304 RMK A01 T01061058  RH  031%=      5-min Rain = 0
KPG1 191604Z 01011KT 10/M06 A304 RMK A01 T01041060  RH  031%=      5-min Rain = 0
KPG1 191605Z 36009KT 10/M06 A304 RMK A01 T01041058  RH  032%=      5-min Rain = 0
KPG1 191606Z 36011KT 11/M06 A304 RMK A01 T01051057  RH  031%=      5-min Rain = 0
KPG1 191607Z 00010KT 11/M06 A304 RMK A01 T01051058  RH  031%=      5-min Rain = 0
KPG1 191608Z 01009KT 11/M06 A304 RMK A01 T01051056  RH  032%=      5-min Rain = 0
KPG1 191609Z 01008KT 11/M06 A304 RMK A01 T01061057  RH  031%=      5-min Rain = 0
KPG1 191610Z 36009KT 11/M06 A304 RMK A01 T01061057  RH  031%=      5-min Rain = 0
KPG1 191611Z 00009KT 11/M06 A304 RMK A01 T01071057  RH  031%=      5-min Rain = 0
KPG1 191612Z 00008G13KT 11/M06 A304 RMK A01 T01081055  RH  031%=      5-min Rain = 0
KPG1 191613Z 00012KT 11/M06 A304 RMK A01 T01091056  RH  031%=      5-min Rain = 0
KPG1 191614Z 35010KT 11/M06 A304 RMK A01 T01091057  RH  031%=      5-min Rain = 0
KPG1 191615Z 36013KT 11/M06 A304 RMK A01 T01081058  RH  031%=      5-min Rain = 0
KPG1 191616Z 35013KT 11/M06 A304 RMK A01 T01071060  RH  030%=      5-min Rain = 0
KPG1 191617Z 00010KT 11/M06 A304 RMK A01 T01061060  RH  031%=      5-min Rain = 0
KPG1 191618Z 02009KT 11/M06 A304 RMK A01 T01061058  RH  031%=      5-min Rain = 0
KPG1 191619Z 02010KT 11/M06 A304 RMK A01 T01091055  RH  031%=      5-min Rain = 0
KPG1 191620Z 02014KT 11/M06 A304 RMK A01 T01101055  RH  031%=      5-min Rain = 0
KPG1 191621Z 01008KT 11/M06 A304 RMK A01 T01091058  RH  030%=      5-min Rain = 0
KPG1 191622Z 02010KT 11/M06 A304 RMK A01 T01081058  RH  031%=      5-min Rain = 0
KPG1 191623Z 02013KT 11/M06 A304 RMK A01 T01081058  RH  031%=      5-min Rain = 0
KPG1 191624Z 02011KT 11/M06 A304 RMK A01 T01091058  RH  031%=      5-min Rain = 0
KPG1 191625Z 01012KT 11/M06 A304 RMK A01 T01091058  RH  030%=      5-min Rain = 0
KPG1 191626Z 00009G14KT 11/M06 A304 RMK A01 T01091059  RH  030%=      5-min Rain = 0
KPG1 191627Z 01010KT 11/M06 A304 RMK A01 T01091057  RH  031%=      5-min Rain = 0
KPG1 191628Z 00009KT 11/M06 A304 RMK A01 T01101057  RH  031%=      5-min Rain = 0
KPG1 191629Z 01011KT 11/M06 A304 RMK A01 T01111056  RH  030%=      5-min Rain = 0
KPG1 191630Z 36011KT 11/M06 A304 RMK A01 T01111057  RH  030%=      5-min Rain = 0
KPG1 191631Z 35011KT 11/M06 A304 RMK A01 T01121058  RH  030%=      5-min Rain = 0
KPG1 191632Z 34012KT 11/M06 A304 RMK A01 T01111058  RH  030%=      5-min Rain = 0
KPG1 191633Z 35012KT 11/M06 A304 RMK A01 T01111056  RH  030%=      5-min Rain = 0
KPG1 191634Z 00011KT 11/M06 A304 RMK A01 T01121057  RH  030%=      5-min Rain = 0
KPG1 191635Z 35012KT 11/M06 A304 RMK A01 T01121057  RH  030%=      5-min Rain = 0
KPG1 191636Z 01011KT 11/M06 A304 RMK A01 T01121057  RH  030%=      5-min Rain = 0
KPG1 191637Z 01012KT 11/M06 A304 RMK A01 T01121056  RH  030%=      5-min Rain = 0
KPG1 191638Z 01011KT 11/M06 A304 RMK A01 T01121058  RH  030%=      5-min Rain = 0
KPG1 191639Z 00007KT 11/M06 A304 RMK A01 T01101060  RH  030%=      5-min Rain = 0
KPG1 191640Z 36009KT 11/M06 A304 RMK A01 T01111056  RH  030%=      5-min Rain = 0
KPG1 191641Z 01008KT 11/M06 A304 RMK A01 T01121058  RH  030%=      5-min Rain = 0
KPG1 191642Z 36009KT 11/M06 A304 RMK A01 T01121056  RH  030%=      5-min Rain = 0
KPG1 191643Z 36008KT 11/M06 A304 RMK A01 T01131055  RH  030%=      5-min Rain = 0
KPG1 191644Z 35009KT 12/M06 A304 RMK A01 T01151055  RH  030%=      5-min Rain = 0
KPG1 191645Z 00010KT 12/M05 A304 RMK A01 T01171052  RH  030%=      5-min Rain = 0
KPG1 191646Z 00011KT 12/M06 A304 RMK A01 T01181056  RH  029%=      5-min Rain = 0
KPG1 191647Z 01012KT 12/M06 A304 RMK A01 T01161058  RH  029%=      5-min Rain = 0
KPG1 191648Z 01011KT 11/M06 A304 RMK A01 T01141059  RH  029%=      5-min Rain = 0
KPG1 191649Z 35012KT 12/M06 A304 RMK A01 T01171055  RH  030%=      5-min Rain = 0
KPG1 191650Z 01010G15KT 12/M06 A304 RMK A01 T01171058  RH  029%=      5-min Rain = 0
KPG1 191651Z 03011KT 12/M06 A304 RMK A01 T01171057  RH  029%=      5-min Rain = 0
KPG1 191652Z 02012KT 12/M06 A304 RMK A01 T01161059  RH  029%=      5-min Rain = 0
KPG1 191653Z 01013KT 12/M06 A304 RMK A01 T01161058  RH  029%=      5-min Rain = 0
KPG1 191654Z 35009KT 12/M06 A304 RMK A01 T01161057  RH  029%=      5-min Rain = 0
KPG1 191655Z 35011KT 12/M06 A304 RMK A01 T01171056  RH  029%=      5-min Rain = 0
KPG1 191656Z 00010KT 12/M06 A304 RMK A01 T01171056  RH  029%=      5-min Rain = 0
KPG1 191657Z 01010KT 12/M05 A304 RMK A01 T01201053  RH  029%=      5-min Rain = 0
KPG1 191658Z 00008KT 12/M06 A304 RMK A01 T01201057  RH  029%=      5-min Rain = 0
KPG1 191659Z 36011KT 12/M06 A304 RMK A01 T01201056  RH  029%=      5-min Rain = 0
KPG1 191700Z 00011KT 12/M06 A3039 RMK A01 T01191056  RH  029%=      5-min Rain = 0
KPG1 191701Z 35012G19KT 12/M05 A3039 RMK A01 T01201054  RH  029%=      5-min Rain = 0
KPG1 191702Z 35014KT 12/M06 A3039 RMK A01 T01211056  RH  029%=      5-min Rain = 0
KPG1 191703Z 35013KT 12/M06 A304 RMK A01 T01201058  RH  028%=      5-min Rain = 0
KPG1 191704Z 01009G15KT 12/M06 A304 RMK A01 T01171061  RH  028%=      5-min Rain = 0
KPG1 191705Z 00013KT 12/M06 A304 RMK A01 T01161058  RH  029%=      5-min Rain = 0
KPG1 191706Z 00012KT 12/M06 A304 RMK A01 T01161061  RH  028%=      5-min Rain = 0
KPG1 191707Z 34014KT 12/M06 A304 RMK A01 T01161060  RH  029%=      5-min Rain = 0
KPG1 191708Z 35012KT 12/M06 A304 RMK A01 T01161061  RH  028%=      5-min Rain = 0
KPG1 191709Z 35013KT 12/M06 A304 RMK A01 T01171059  RH  029%=      5-min Rain = 0
KPG1 191710Z 35012KT 12/M06 A304 RMK A01 T01191059  RH  028%=      5-min Rain = 0
KPG1 191711Z 35012KT 12/M06 A304 RMK A01 T01211059  RH  028%=      5-min Rain = 0
KPG1 191712Z 34012KT 12/M06 A304 RMK A01 T01211061  RH  028%=      5-min Rain = 0
KPG1 191713Z 35012KT 12/M06 A304 RMK A01 T01191063  RH  027%=      5-min Rain = 0
KPG1 191714Z 36011KT 12/M06 A304 RMK A01 T01191061  RH  028%=      5-min Rain = 0
KPG1 191715Z 36010KT 12/M06 A304 RMK A01 T01191061  RH  028%=      5-min Rain = 0
KPG1 191716Z 34013KT 12/M06 A304 RMK A01 T01211058  RH  028%=      5-min Rain = 0
KPG1 191717Z 35013KT 12/M06 A304 RMK A01 T01211062  RH  027%=      5-min Rain = 0
KPG1 191718Z 35011KT 12/M06 A304 RMK A01 T01201062  RH  028%=      5-min Rain = 0
KPG1 191719Z 00012KT 12/M06 A304 RMK A01 T01201061  RH  028%=      5-min Rain = 0
KPG1 191720Z 35015KT 12/M06 A304 RMK A01 T01221058  RH  028%=      5-min Rain = 0
KPG1 191721Z 35012KT 12/M06 A304 RMK A01 T01211064  RH  027%=      5-min Rain = 0
KPG1 191722Z 34011G16KT 12/M06 A304 RMK A01 T01201063  RH  027%=      5-min Rain = 0
KPG1 191723Z 35013KT 12/M06 A304 RMK A01 T01211061  RH  027%=      5-min Rain = 0
KPG1 191724Z 00014KT 12/M06 A304 RMK A01 T01211063  RH  027%=      5-min Rain = 0
KPG1 191725Z 02011KT 12/M06 A304 RMK A01 T01211063  RH  027%=      5-min Rain = 0
KPG1 191726Z 03013KT 12/M06 A304 RMK A01 T01211063  RH  027%=      5-min Rain = 0
KPG1 191727Z 04013KT 12/M06 A304 RMK A01 T01221063  RH  027%=      5-min Rain = 0
KPG1 191728Z 04013KT 12/M06 A304 RMK A01 T01221063  RH  027%=      5-min Rain = 0
KPG1 191729Z 04011KT 12/M06 A304 RMK A01 T01221064  RH  027%=      5-min Rain = 0
KPG1 191730Z 03010KT 12/M06 A304 RMK A01 T01231059  RH  028%=      5-min Rain = 0
KPG1 191731Z 03009KT 13/M06 A304 RMK A01 T01251059  RH  027%=      5-min Rain = 0
KPG1 191732Z 02011KT 13/M06 A304 RMK A01 T01271056  RH  027%=      5-min Rain = 0
KPG1 191733Z 02012KT 13/M06 A304 RMK A01 T01271062  RH  026%=      5-min Rain = 0
KPG1 191734Z 01013KT 13/M06 A3039 RMK A01 T01261060  RH  027%=      5-min Rain = 0
KPG1 191735Z 35012KT 13/M06 A3039 RMK A01 T01261061  RH  027%=      5-min Rain = 0
KPG1 191736Z 01011KT 13/M06 A3039 RMK A01 T01261060  RH  027%=      5-min Rain = 0
KPG1 191737Z 02010KT 13/M06 A3039 RMK A01 T01261062  RH  026%=      5-min Rain = 0
KPG1 191738Z 02008KT 13/M06 A3039 RMK A01 T01251062  RH  027%=      5-min Rain = 0
KPG1 191739Z 01012KT 13/M06 A304 RMK A01 T01261060  RH  027%=      5-min Rain = 0
KPG1 191740Z 02011KT 13/M06 A304 RMK A01 T01251063  RH  026%=      5-min Rain = 0
KPG1 191741Z 03011KT 12/M06 A3039 RMK A01 T01231063  RH  027%=      5-min Rain = 0
KPG1 191742Z 03010KT 12/M06 A3039 RMK A01 T01221062  RH  027%=      5-min Rain = 0
KPG1 191743Z 03008KT 12/M06 A3039 RMK A01 T01231061  RH  027%=      5-min Rain = 0
KPG1 191744Z 03009KT 13/M06 A3039 RMK A01 T01251056  RH  028%=      5-min Rain = 0
KPG1 191745Z 02011KT 13/M06 A3039 RMK A01 T01281057  RH  027%=      5-min Rain = 0
KPG1 191746Z 01012KT 13/M06 A3039 RMK A01 T01261060  RH  027%=      5-min Rain = 0
KPG1 191747Z 03009KT 13/M06 A3039 RMK A01 T01251060  RH  027%=      5-min Rain = 0
KPG1 191748Z 01008KT 13/M06 A3039 RMK A01 T01261056  RH  028%=      5-min Rain = 0
KPG1 191749Z 00006KT 13/M06 A3039 RMK A01 T01271058  RH  027%=      5-min Rain = 0
KPG1 191750Z 01007KT 13/M06 A3039 RMK A01 T01271058  RH  027%=      5-min Rain = 0
KPG1 191751Z 02008KT 13/M06 A3039 RMK A01 T01281056  RH  027%=      5-min Rain = 0
KPG1 191752Z 03011KT 13/M05 A3039 RMK A01 T01311053  RH  027%=      5-min Rain = 0
KPG1 191753Z 00012KT 13/M06 A3039 RMK A01 T01321057  RH  026%=      5-min Rain = 0
KPG1 191754Z 35010KT 13/M06 A3039 RMK A01 T01301060  RH  026%=      5-min Rain = 0
KPG1 191755Z 34010KT 13/M06 A3039 RMK A01 T01281059  RH  027%=      5-min Rain = 0
KPG1 191756Z 34009KT 13/M06 A3039 RMK A01 T01271061  RH  026%=      5-min Rain = 0
KPG1 191757Z 34008KT 13/M06 A3039 RMK A01 T01251060  RH  027%=      5-min Rain = 0
KPG1 191758Z 35007KT 13/M06 A3039 RMK A01 T01271057  RH  027%=      5-min Rain = 0
KPG1 191759Z 34010KT 13/M06 A3039 RMK A01 T01291056  RH  027%=      5-min Rain = 0
KPG1 191800Z 01008KT 13/M06 A3039 RMK A01 T01291059  RH  026%=      5-min Rain = 0
KPG1 191801Z 04008KT 13/M06 A3039 RMK A01 T01291058  RH  027%=      5-min Rain = 0
KPG1 191802Z 35006KT 13/M06 A3039 RMK A01 T01281058  RH  027%=      5-min Rain = 0
KPG1 191803Z 34008KT 13/M06 A3039 RMK A01 T01291058  RH  027%=      5-min Rain = 0
KPG1 191804Z 35010KT 13/M06 A3039 RMK A01 T01311057  RH  027%=      5-min Rain = 0
KPG1 191805Z 35010KT 13/M06 A3039 RMK A01 T01321058  RH  026%=      5-min Rain = 0
KPG1 191806Z 36009KT 13/M06 A3039 RMK A01 T01311058  RH  026%=      5-min Rain = 0
KPG1 191807Z 01005KT 13/M06 A3039 RMK A01 T01301061  RH  026%=      5-min Rain = 0
KPG1 191808Z 00003KT 13/M06 A3039 RMK A01 T01281063  RH  026%=      5-min Rain = 0
KPG1 191809Z 36007KT 13/M06 A3039 RMK A01 T01271060  RH  027%=      5-min Rain = 0
KPG1 191810Z 34010KT 13/M06 A3039 RMK A01 T01311056  RH  027%=      5-min Rain = 0
KPG1 191811Z 35008KT 13/M06 A3039 RMK A01 T01321059  RH  026%=      5-min Rain = 0
KPG1 191812Z 35008KT 13/M06 A3038 RMK A01 T01291062  RH  026%=      5-min Rain = 0
KPG1 191813Z 01007KT 13/M06 A3038 RMK A01 T01281059  RH  027%=      5-min Rain = 0
KPG1 191814Z 02008KT 13/M06 A3038 RMK A01 T01311057  RH  026%=      5-min Rain = 0
KPG1 191815Z 02009KT 13/M06 A3038 RMK A01 T01331058  RH  026%=      5-min Rain = 0
KPG1 191816Z 03009KT 13/M06 A3038 RMK A01 T01321060  RH  026%=      5-min Rain = 0
KPG1 191817Z 05010KT 13/M06 A3038 RMK A01 T01321061  RH  026%=      5-min Rain = 0
KPG1 191818Z 04009KT 13/M06 A3038 RMK A01 T01311063  RH  025%=      5-min Rain = 0
KPG1 191819Z 04010KT 13/M06 A3038 RMK A01 T01311061  RH  026%=      5-min Rain = 0
KPG1 191820Z 04009KT 13/M06 A3038 RMK A01 T01321061  RH  026%=      5-min Rain = 0
KPG1 191821Z 04007KT 13/M06 A3038 RMK A01 T01321061  RH  026%=      5-min Rain = 0
KPG1 191822Z 04008KT 13/M06 A3038 RMK A01 T01341057  RH  026%=      5-min Rain = 0
KPG1 191823Z 05007KT 13/M06 A3038 RMK A01 T01341060  RH  025%=      5-min Rain = 0
KPG1 191824Z 02008KT 13/M06 A3038 RMK A01 T01341058  RH  026%=      5-min Rain = 0
KPG1 191825Z 35008KT 14/M06 A3038 RMK A01 T01351057  RH  026%=      5-min Rain = 0
KPG1 191826Z 34010KT 14/M06 A3038 RMK A01 T01361057  RH  026%=      5-min Rain = 0
KPG1 191827Z 35007KT 13/M06 A3038 RMK A01 T01341059  RH  026%=      5-min Rain = 0
KPG1 191828Z 35005KT 13/M06 A3038 RMK A01 T01321058  RH  026%=      5-min Rain = 0
KPG1 191829Z 34008KT 13/M06 A3038 RMK A01 T01331056  RH  026%=      5-min Rain = 0
KPG1 191830Z 34007KT 13/M06 A3038 RMK A01 T01331059  RH  026%=      5-min Rain = 0
KPG1 191831Z 34008KT 13/M06 A3037 RMK A01 T01331057  RH  026%=      5-min Rain = 0
KPG1 191832Z 35007KT 14/M06 A3037 RMK A01 T01351058  RH  026%=      5-min Rain = 0
KPG1 191833Z 35006KT 13/M06 A3037 RMK A01 T01341060  RH  025%=      5-min Rain = 0
KPG1 191834Z 03006KT 13/M06 A3037 RMK A01 T01331059  RH  026%=      5-min Rain = 0
KPG1 191835Z 05008KT 14/M06 A3037 RMK A01 T01351057  RH  026%=      5-min Rain = 0
KPG1 191836Z 06009KT 14/M06 A3037 RMK A01 T01371056  RH  026%=      5-min Rain = 0
KPG1 191837Z 05009KT 14/M06 A3037 RMK A01 T01371061  RH  025%=      5-min Rain = 0
KPG1 191838Z 05008KT 14/M06 A3037 RMK A01 T01351061  RH  025%=      5-min Rain = 0
KPG1 191839Z 08005KT 14/M06 A3037 RMK A01 T01351060  RH  025%=      5-min Rain = 0
KPG1 191840Z 06005KT 14/M05 A3037 RMK A01 T01381054  RH  026%=      5-min Rain = 0
KPG1 191841Z 05007KT 14/M06 A3037 RMK A01 T01411056  RH  025%=      5-min Rain = 0
KPG1 191842Z 04007KT 14/M06 A3037 RMK A01 T01401056  RH  025%=      5-min Rain = 0
KPG1 191843Z 32006KT 14/M06 A3037 RMK A01 T01401056  RH  025%=      5-min Rain = 0
KPG1 191844Z 32004KT 14/M06 A3037 RMK A01 T01381060  RH  025%=      5-min Rain = 0
KPG1 191845Z 35004KT 14/M06 A3037 RMK A01 T01371059  RH  025%=      5-min Rain = 0
KPG1 191846Z 33007KT 14/M06 A3037 RMK A01 T01371060  RH  025%=      5-min Rain = 0
KPG1 191847Z 32006KT 14/M06 A3037 RMK A01 T01371060  RH  025%=      5-min Rain = 0
KPG1 191848Z 34007KT 14/M06 A3037 RMK A01 T01381057  RH  025%=      5-min Rain = 0
KPG1 191849Z 33009KT 14/M06 A3037 RMK A01 T01411057  RH  025%=      5-min Rain = 0
KPG1 191850Z 34008KT 14/M06 A3037 RMK A01 T01411059  RH  024%=      5-min Rain = 0
KPG1 191851Z 35008KT 14/M06 A3037 RMK A01 T01401061  RH  024%=      5-min Rain = 0
KPG1 191852Z 35006KT 14/M06 A3037 RMK A01 T01381060  RH  025%=      5-min Rain = 0
KPG1 191853Z 34007KT 14/M06 A3036 RMK A01 T01401056  RH  025%=      5-min Rain = 0
KPG1 191854Z 34006KT 14/M06 A3036 RMK A01 T01421056  RH  025%=      5-min Rain = 0
KPG1 191855Z 34009KT 14/M06 A3036 RMK A01 T01421059  RH  024%=      5-min Rain = 0
KPG1 191856Z 35009KT 14/M06 A3036 RMK A01 T01411059  RH  024%=      5-min Rain = 0
KPG1 191857Z 33008KT 14/M06 A3036 RMK A01 T01381061  RH  025%=      5-min Rain = 0
KPG1 191858Z 33009KT 14/M06 A3036 RMK A01 T01371059  RH  025%=      5-min Rain = 0
KPG1 191859Z 32007KT 14/M06 A3036 RMK A01 T01371061  RH  025%=      5-min Rain = 0
KPG1 191900Z 32009KT 14/M06 A3036 RMK A01 T01361061  RH  025%=      5-min Rain = 0
KPG1 191901Z 33006KT 14/M06 A3036 RMK A01 T01371060  RH  025%=      5-min Rain = 0
KPG1 191902Z 35008KT 14/M06 A3036 RMK A01 T01381058  RH  025%=      5-min Rain = 0
KPG1 191903Z 34008KT 14/M06 A3036 RMK A01 T01391061  RH  025%=      5-min Rain = 0
KPG1 191904Z 34008KT 14/M06 A3036 RMK A01 T01391060  RH  025%=      5-min Rain = 0
KPG1 191905Z 33006KT 14/M06 A3036 RMK A01 T01381060  RH  025%=      5-min Rain = 0
KPG1 191906Z 33004KT 14/M06 A3036 RMK A01 T01381062  RH  024%=      5-min Rain = 0
KPG1 191907Z 31003KT 14/M06 A3036 RMK A01 T01371064  RH  024%=      5-min Rain = 0
KPG1 191908Z 01001KT 14/M06 A3036 RMK A01 T01361061  RH  025%=      5-min Rain = 0
KPG1 191909Z 32002KT 14/M06 A3036 RMK A01 T01381055  RH  026%=      5-min Rain = 0
KPG1 191910Z 33005KT 14/M06 A3035 RMK A01 T01411057  RH  025%=      5-min Rain = 0
KPG1 191911Z 32005KT 14/M06 A3035 RMK A01 T01431060  RH  024%=      5-min Rain = 0
KPG1 191912Z 34006KT 14/M06 A3035 RMK A01 T01421060  RH  024%=      5-min Rain = 0
KPG1 191913Z 00008KT 14/M06 A3035 RMK A01 T01441055  RH  025%=      5-min Rain = 0
KPG1 191914Z 01009KT 15/M06 A3035 RMK A01 T01461058  RH  024%=      5-min Rain = 0
KPG1 191915Z 36009KT 15/M06 A3035 RMK A01 T01451059  RH  024%=      5-min Rain = 0
KPG1 191916Z 01009KT 14/M06 A3035 RMK A01 T01441058  RH  024%=      5-min Rain = 0
KPG1 191917Z 01009KT 14/M06 A3035 RMK A01 T01441061  RH  024%=      5-min Rain = 0
KPG1 191918Z 36007KT 14/M06 A3035 RMK A01 T01421062  RH  024%=      5-min Rain = 0
KPG1 191919Z 34006KT 14/M06 A3035 RMK A01 T01411061  RH  024%=      5-min Rain = 0
KPG1 191920Z 35006KT 14/M06 A3035 RMK A01 T01401061  RH  024%=      5-min Rain = 0
KPG1 191921Z 34007KT 14/M06 A3035 RMK A01 T01401059  RH  025%=      5-min Rain = 0
KPG1 191922Z 33007KT 14/M06 A3035 RMK A01 T01411059  RH  025%=      5-min Rain = 0
KPG1 191923Z 35008KT 14/M06 A3035 RMK A01 T01411060  RH  024%=      5-min Rain = 0
KPG1 191924Z 01007KT 14/M06 A3035 RMK A01 T01401061  RH  024%=      5-min Rain = 0
KPG1 191925Z 35005KT 14/M06 A3035 RMK A01 T01401062  RH  024%=      5-min Rain = 0
KPG1 191926Z 01007KT 14/M06 A3034 RMK A01 T01401062  RH  024%=      5-min Rain = 0
KPG1 191927Z 01004KT 14/M06 A3034 RMK A01 T01401061  RH  024%=      5-min Rain = 0
KPG1 191928Z 02004KT 14/M06 A3034 RMK A01 T01401061  RH  024%=      5-min Rain = 0
KPG1 191929Z 01006KT 14/M06 A3034 RMK A01 T01411058  RH  025%=      5-min Rain = 0
KPG1 191930Z 35005KT 14/M06 A3034 RMK A01 T01431055  RH  025%=      5-min Rain = 0
KPG1 191931Z 35005KT 15/M06 A3034 RMK A01 T01451055  RH  025%=      5-min Rain = 0
KPG1 191932Z 31003KT 15/M05 A3034 RMK A01 T01461054  RH  025%=      5-min Rain = 0
KPG1 191933Z 35003KT 15/M06 A3034 RMK A01 T01471056  RH  024%=      5-min Rain = 0
KPG1 191934Z 03003KT 15/M06 A3034 RMK A01 T01461057  RH  024%=      5-min Rain = 0
KPG1 191935Z 05009KT 15/M06 A3034 RMK A01 T01461058  RH  024%=      5-min Rain = 0
KPG1 191936Z 04010KT 15/M06 A3034 RMK A01 T01471059  RH  024%=      5-min Rain = 0
KPG1 191937Z 03012KT 15/M06 A3033 RMK A01 T01501057  RH  024%=      5-min Rain = 0
KPG1 191938Z 02012KT 15/M06 A3033 RMK A01 T01511058  RH  023%=      5-min Rain = 0
KPG1 191939Z 03011KT 15/M06 A3033 RMK A01 T01521059  RH  023%=      5-min Rain = 0
KPG1 191940Z 01011KT 15/M06 A3033 RMK A01 T01511060  RH  023%=      5-min Rain = 0
KPG1 191941Z 36009KT 15/M07 A3033 RMK A01 T01491065  RH  022%=      5-min Rain = 0
KPG1 191942Z 02006KT 15/M06 A3033 RMK A01 T01461064  RH  023%=      5-min Rain = 0
KPG1 191943Z 35006KT 15/M07 A3033 RMK A01 T01451065  RH  023%=      5-min Rain = 0
KPG1 191944Z 34006KT 14/M07 A3033 RMK A01 T01441068  RH  023%=      5-min Rain = 0
KPG1 191945Z 35007KT 14/M07 A3033 RMK A01 T01431065  RH  023%=      5-min Rain = 0
KPG1 191946Z 33007KT 14/M06 A3033 RMK A01 T01431064  RH  023%=      5-min Rain = 0
KPG1 191947Z 34005KT 14/M06 A3033 RMK A01 T01441060  RH  024%=      5-min Rain = 0
KPG1 191948Z 34003KT 15/M06 A3033 RMK A01 T01461064  RH  023%=      5-min Rain = 0
KPG1 191949Z 33005KT 14/M07 A3033 RMK A01 T01441067  RH  023%=      5-min Rain = 0
KPG1 191950Z 32005KT 14/M06 A3033 RMK A01 T01441062  RH  024%=      5-min Rain = 0
KPG1 191951Z 29005KT 15/M06 A3033 RMK A01 T01451064  RH  023%=      5-min Rain = 0
KPG1 191952Z 30006KT 15/M06 A3033 RMK A01 T01451062  RH  023%=      5-min Rain = 0
KPG1 191953Z 30004KT 15/M06 A3033 RMK A01 T01451064  RH  023%=      5-min Rain = 0
KPG1 191954Z 33002KT 15/M06 A3033 RMK A01 T01451058  RH  024%=      5-min Rain = 0
KPG1 191955Z 01005KT 15/M06 A3033 RMK A01 T01491057  RH  024%=      5-min Rain = 0
KPG1 191956Z 02007KT 15/M06 A3033 RMK A01 T01491060  RH  023%=      5-min Rain = 0
KPG1 191957Z 02006KT 15/M06 A3032 RMK A01 T01501058  RH  023%=      5-min Rain = 0
KPG1 191958Z 03003KT 15/M06 A3032 RMK A01 T01511063  RH  022%=      5-min Rain = 0
KPG1 191959Z 03006KT 15/M06 A3032 RMK A01 T01491063  RH  023%=      5-min Rain = 0
KPG1 192000Z 05007KT 15/M06 A3032 RMK A01 T01481064  RH  022%=      5-min Rain = 0
KPG1 192001Z 05006KT 15/M07 A3032 RMK A01 T01461065  RH  023%=      5-min Rain = 0
KPG1 192002Z 04007KT 15/M06 A3032 RMK A01 T01451064  RH  023%=      5-min Rain = 0
KPG1 192003Z 01008KT 15/M06 A3032 RMK A01 T01481058  RH  023%=      5-min Rain = 0
KPG1 192004Z 02008KT 15/M06 A3032 RMK A01 T01501060  RH  023%=      5-min Rain = 0
KPG1 192005Z 04009KT 15/M06 A3032 RMK A01 T01491063  RH  023%=      5-min Rain = 0
KPG1 192006Z 04005KT 15/M07 A3032 RMK A01 T01461065  RH  023%=      5-min Rain = 0
KPG1 192007Z 01007KT 15/M06 A3032 RMK A01 T01451064  RH  023%=      5-min Rain = 0
KPG1 192008Z 00008KT 15/M06 A3032 RMK A01 T01461062  RH  023%=      5-min Rain = 0
KPG1 192009Z 04007KT 15/M06 A3032 RMK A01 T01471061  RH  023%=      5-min Rain = 0
KPG1 192010Z 03006KT 15/M07 A3032 RMK A01 T01471065  RH  022%=      5-min Rain = 0
KPG1 192011Z 04005KT 15/M07 A3032 RMK A01 T01461066  RH  023%=      5-min Rain = 0
KPG1 192012Z 02007KT 15/M06 A3032 RMK A01 T01451062  RH  023%=      5-min Rain = 0
KPG1 192013Z 05007KT 15/M06 A3032 RMK A01 T01491057  RH  024%=      5-min Rain = 0
KPG1 192014Z 04006KT 15/M06 A3032 RMK A01 T01501061  RH  023%=      5-min Rain = 0
KPG1 192015Z 08005KT 15/M06 A3032 RMK A01 T01491059  RH  023%=      5-min Rain = 0
KPG1 192016Z 06010KT 15/M06 A3032 RMK A01 T01501059  RH  023%=      5-min Rain = 0
KPG1 192017Z 02010KT 15/M06 A3032 RMK A01 T01501061  RH  023%=      5-min Rain = 0
KPG1 192018Z 02007G12KT 15/M06 A3031 RMK A01 T01491061  RH  023%=      5-min Rain = 0
KPG1 192019Z 36008KT 15/M06 A3032 RMK A01 T01491059  RH  023%=      5-min Rain = 0
KPG1 192020Z 34007KT 15/M06 A3031 RMK A01 T01501058  RH  023%=      5-min Rain = 0
KPG1 192021Z 34008KT 15/M06 A3031 RMK A01 T01511057  RH  023%=      5-min Rain = 0
KPG1 192022Z 34007KT 15/M06 A3031 RMK A01 T01501059  RH  023%=      5-min Rain = 0
KPG1 192023Z 35007KT 15/M06 A3031 RMK A01 T01481062  RH  023%=      5-min Rain = 0
KPG1 192024Z 35007KT 15/M06 A3031 RMK A01 T01461062  RH  023%=      5-min Rain = 0
KPG1 192025Z 34008KT 15/M06 A3031 RMK A01 T01471059  RH  024%=      5-min Rain = 0
KPG1 192026Z 34006KT 15/M06 A3031 RMK A01 T01471062  RH  023%=      5-min Rain = 0
KPG1 192027Z 36005KT 15/M06 A3031 RMK A01 T01461061  RH  023%=      5-min Rain = 0
KPG1 192028Z 31004KT 15/M06 A3031 RMK A01 T01461061  RH  023%=      5-min Rain = 0
KPG1 192029Z 36003KT 15/M06 A3031 RMK A01 T01461062  RH  023%=      5-min Rain = 0
KPG1 192030Z 03002KT 15/M06 A3031 RMK A01 T01461060  RH  024%=      5-min Rain = 0
KPG1 192031Z 01002KT 15/M06 A3031 RMK A01 T01461063  RH  023%=      5-min Rain = 0
KPG1 192032Z 22003KT 15/M06 A3031 RMK A01 T01461063  RH  023%=      5-min Rain = 0
KPG1 192033Z 17004KT 15/M06 A3031 RMK A01 T01461061  RH  023%=      5-min Rain = 0
KPG1 192034Z 16004KT 15/M06 A3031 RMK A01 T01471060  RH  023%=      5-min Rain = 0
KPG1 192035Z 18004KT 15/M06 A3031 RMK A01 T01481062  RH  023%=      5-min Rain = 0
KPG1 192036Z 18005KT 15/M06 A303 RMK A01 T01491059  RH  023%=      5-min Rain = 0
KPG1 192037Z 17004KT 15/M06 A303 RMK A01 T01511060  RH  023%=      5-min Rain = 0
KPG1 192038Z 16003KT 15/M06 A303 RMK A01 T01511061  RH  023%=      5-min Rain = 0
KPG1 192039Z 17002KT 15/M06 A303 RMK A01 T01531058  RH  023%=      5-min Rain = 0
KPG1 192040Z 19001KT 16/M06 A303 RMK A01 T01551060  RH  022%=      5-min Rain = 0
KPG1 192041Z 32002KT 16/M06 A303 RMK A01 T01561060  RH  022%=      5-min Rain = 0
KPG1 192042Z 02006KT 16/M06 A303 RMK A01 T01571057  RH  023%=      5-min Rain = 0
KPG1 192043Z 01006KT 16/M06 A303 RMK A01 T01581057  RH  022%=      5-min Rain = 0
KPG1 192044Z 02005KT 16/M06 A303 RMK A01 T01551061  RH  022%=      5-min Rain = 0
KPG1 192045Z 35006KT 15/M06 A303 RMK A01 T01521063  RH  022%=      5-min Rain = 0
KPG1 192046Z 33005KT 15/M06 A303 RMK A01 T01501063  RH  022%=      5-min Rain = 0
KPG1 192047Z 29003KT 15/M07 A303 RMK A01 T01501065  RH  022%=      5-min Rain = 0
KPG1 192048Z 31006KT 15/M06 A303 RMK A01 T01491063  RH  023%=      5-min Rain = 0
KPG1 192049Z 33005KT 15/M06 A303 RMK A01 T01521058  RH  023%=      5-min Rain = 0
KPG1 192050Z 29006KT 16/M06 A303 RMK A01 T01561056  RH  023%=      5-min Rain = 0
KPG1 192051Z 29005KT 16/M06 A303 RMK A01 T01571059  RH  022%=      5-min Rain = 0
KPG1 192052Z 30004KT 16/M06 A303 RMK A01 T01571062  RH  022%=      5-min Rain = 0
KPG1 192053Z 33004KT 15/M06 A303 RMK A01 T01541061  RH  022%=      5-min Rain = 0
KPG1 192054Z 33004KT 15/M06 A303 RMK A01 T01541059  RH  022%=      5-min Rain = 0
KPG1 192055Z 33005KT 16/M06 A3029 RMK A01 T01551061  RH  022%=      5-min Rain = 0
KPG1 192056Z 32005KT 15/M06 A3029 RMK A01 T01521064  RH  022%=      5-min Rain = 0
KPG1 192057Z 00003KT 15/M06 A303 RMK A01 T01511064  RH  022%=      5-min Rain = 0
KPG1 192058Z 36004KT 15/M06 A303 RMK A01 T01511063  RH  022%=      5-min Rain = 0
KPG1 192059Z 05007KT 15/M06 A3029 RMK A01 T01511060  RH  023%=      5-min Rain = 0
KPG1 192100Z 05006KT 15/M06 A303 RMK A01 T01521061  RH  022%=      5-min Rain = 0
KPG1 192101Z 00004KT 15/M06 A303 RMK A01 T01521064  RH  022%=      5-min Rain = 0
KPG1 192102Z 36002KT 15/M07 A3029 RMK A01 T01501066  RH  022%=      5-min Rain = 0
KPG1 192103Z 06002KT 15/M06 A3029 RMK A01 T01491062  RH  023%=      5-min Rain = 0
KPG1 192104Z 11007KT 15/M06 A303 RMK A01 T01511060  RH  023%=      5-min Rain = 0
KPG1 192105Z 19002KT 15/M06 A303 RMK A01 T01511063  RH  022%=      5-min Rain = 0
KPG1 192106Z 19001KT 15/M06 A303 RMK A01 T01521064  RH  022%=      5-min Rain = 0
KPG1 192107Z 19002KT 15/M07 A3029 RMK A01 T01531066  RH  022%=      5-min Rain = 0
KPG1 192108Z 13003KT 15/M06 A3029 RMK A01 T01531060  RH  023%=      5-min Rain = 0
KPG1 192109Z 12006KT 16/M06 A3029 RMK A01 T01571056  RH  023%=      5-min Rain = 0
KPG1 192110Z 13006KT 16/M06 A3029 RMK A01 T01581060  RH  022%=      5-min Rain = 0
KPG1 192111Z 12004KT 16/M06 A3029 RMK A01 T01571062  RH  022%=      5-min Rain = 0
KPG1 192112Z 10005KT 16/M06 A3029 RMK A01 T01561061  RH  022%=      5-min Rain = 0
KPG1 192113Z 09003KT 16/M06 A3029 RMK A01 T01571060  RH  022%=      5-min Rain = 0
KPG1 192114Z 12002KT 16/M07 A3029 RMK A01 T01561065  RH  021%=      5-min Rain = 0
KPG1 192115Z 12002KT 16/M06 A3029 RMK A01 T01551063  RH  022%=      5-min Rain = 0
KPG1 192116Z 10004KT 15/M07 A3029 RMK A01 T01541065  RH  022%=      5-min Rain = 0
KPG1 192117Z 10002KT 15/M06 A3029 RMK A01 T01541063  RH  022%=      5-min Rain = 0
KPG1 192118Z 10006KT 16/M06 A3029 RMK A01 T01561058  RH  022%=      5-min Rain = 0
KPG1 192119Z 09006KT 16/M06 A3029 RMK A01 T01581059  RH  022%=      5-min Rain = 0
KPG1 192120Z 05008KT 16/M06 A3029 RMK A01 T01581060  RH  022%=      5-min Rain = 0
KPG1 192121Z 06007KT 16/M06 A3029 RMK A01 T01581059  RH  022%=      5-min Rain = 0
KPG1 192122Z 05007KT 16/M06 A3029 RMK A01 T01571062  RH  022%=      5-min Rain = 0
KPG1 192123Z 03003KT 15/M07 A3029 RMK A01 T01531065  RH  022%=      5-min Rain = 0
KPG1 192124Z 05004KT 15/M06 A3029 RMK A01 T01521064  RH  022%=      5-min Rain = 0
KPG1 192125Z 02004KT 15/M06 A3029 RMK A01 T01531060  RH  022%=      5-min Rain = 0
KPG1 192126Z 01006KT 16/M06 A3029 RMK A01 T01571058  RH  022%=      5-min Rain = 0
KPG1 192127Z 36005KT 16/M06 A3029 RMK A01 T01581061  RH  022%=      5-min Rain = 0
KPG1 192128Z 36004KT 16/M07 A3029 RMK A01 T01561065  RH  021%=      5-min Rain = 0
KPG1 192129Z 36005KT 16/M06 A3029 RMK A01 T01561063  RH  022%=      5-min Rain = 0
KPG1 192130Z 01005KT 16/M07 A3029 RMK A01 T01561066  RH  021%=      5-min Rain = 0
KPG1 192131Z 01002KT 16/M07 A3029 RMK A01 T01551067  RH  021%=      5-min Rain = 0
KPG1 192132Z 04003KT 16/M07 A3029 RMK A01 T01551067  RH  021%=      5-min Rain = 0
KPG1 192133Z 04007KT 16/M07 A3029 RMK A01 T01551065  RH  021%=      5-min Rain = 0
KPG1 192134Z 05006KT 16/M07 A3029 RMK A01 T01561066  RH  021%=      5-min Rain = 0
KPG1 192135Z 06003KT 15/M07 A3029 RMK A01 T01541071  RH  021%=      5-min Rain = 0
KPG1 192136Z 05003KT 15/M07 A3029 RMK A01 T01521072  RH  021%=      5-min Rain = 0
KPG1 192137Z 05004KT 15/M07 A3029 RMK A01 T01511067  RH  021%=      5-min Rain = 0
KPG1 192138Z 00007KT 15/M06 A3029 RMK A01 T01541064  RH  022%=      5-min Rain = 0
KPG1 192139Z 35009KT 16/M07 A3029 RMK A01 T01551065  RH  021%=      5-min Rain = 0
KPG1 192140Z 33007KT 16/M07 A3029 RMK A01 T01551068  RH  021%=      5-min Rain = 0
KPG1 192141Z 36004KT 15/M07 A3029 RMK A01 T01541069  RH  021%=      5-min Rain = 0
KPG1 192142Z 01001KT 15/M07 A3029 RMK A01 T01531071  RH  021%=      5-min Rain = 0
KPG1 192143Z 36003KT 15/M07 A3029 RMK A01 T01531066  RH  022%=      5-min Rain = 0
KPG1 192144Z 32006KT 16/M07 A3029 RMK A01 T01551066  RH  021%=      5-min Rain = 0
KPG1 192145Z 32004KT 15/M07 A3029 RMK A01 T01541070  RH  021%=      5-min Rain = 0
KPG1 192146Z 33003KT 15/M07 A3029 RMK A01 T01521070  RH  021%=      5-min Rain = 0
KPG1 192147Z 30004KT 15/M07 A3028 RMK A01 T01521070  RH  021%=      5-min Rain = 0
KPG1 192148Z 31004KT 15/M07 A3028 RMK A01 T01531069  RH  021%=      5-min Rain = 0
KPG1 192149Z 33004KT 15/M07 A3028 RMK A01 T01531071  RH  021%=      5-min Rain = 0
KPG1 192150Z 03005KT 15/M07 A3029 RMK A01 T01521069  RH  021%=      5-min Rain = 0
KPG1 192151Z 02005KT 15/M06 A3029 RMK A01 T01541063  RH  022%=      5-min Rain = 0
KPG1 192152Z 05003KT 16/M07 A3029 RMK A01 T01551066  RH  021%=      5-min Rain = 0
KPG1 192153Z 01003KT 15/M07 A3029 RMK A01 T01541068  RH  021%=      5-min Rain = 0
KPG1 192154Z 00004KT 15/M07 A3028 RMK A01 T01541067  RH  021%=      5-min Rain = 0
KPG1 192155Z 00003KT 15/M07 A3028 RMK A01 T01541067  RH  021%=      5-min Rain = 0
KPG1 192156Z 35001KT 15/M07 A3028 RMK A01 T01541065  RH  021%=      5-min Rain = 0
KPG1 192157Z 06003KT 16/M07 A3028 RMK A01 T01551069  RH  021%=      5-min Rain = 0
KPG1 192158Z 04006KT 16/M07 A3028 RMK A01 T01551067  RH  021%=      5-min Rain = 0
KPG1 192159Z 05003KT 16/M07 A3028 RMK A01 T01551065  RH  021%=      5-min Rain = 0
KPG1 192200Z 07005KT 16/M07 A3028 RMK A01 T01561067  RH  021%=      5-min Rain = 0
KPG1 192201Z 07003KT 16/M06 A3028 RMK A01 T01561064  RH  021%=      5-min Rain = 0
KPG1 192202Z 07004KT 16/M06 A3028 RMK A01 T01591060  RH  022%=      5-min Rain = 0
KPG1 192203Z 05008KT 16/M06 A3028 RMK A01 T01611061  RH  021%=      5-min Rain = 0
KPG1 192204Z 05008KT 16/M07 A3028 RMK A01 T01601065  RH  021%=      5-min Rain = 0
KPG1 192205Z 03005KT 16/M07 A3028 RMK A01 T01581068  RH  021%=      5-min Rain = 0
KPG1 192206Z 06004KT 16/M07 A3028 RMK A01 T01561066  RH  021%=      5-min Rain = 0
KPG1 192207Z 06005KT 16/M07 A3028 RMK A01 T01571066  RH  021%=      5-min Rain = 0
KPG1 192208Z 05004KT 16/M07 A3028 RMK A01 T01561066  RH  021%=      5-min Rain = 0
KPG1 192209Z 07006KT 16/M06 A3028 RMK A01 T01571061  RH  022%=      5-min Rain = 0
KPG1 192210Z 05005KT 16/M07 A3028 RMK A01 T01581065  RH  021%=      5-min Rain = 0
KPG1 192211Z 07004KT 16/M07 A3028 RMK A01 T01571068  RH  021%=      5-min Rain = 0
KPG1 192212Z 11002KT 15/M07 A3028 RMK A01 T01541072  RH  020%=      5-min Rain = 0
KPG1 192213Z 06002KT 15/M07 A3028 RMK A01 T01531071  RH  021%=      5-min Rain = 0
KPG1 192214Z 01002KT 15/M07 A3028 RMK A01 T01541068  RH  021%=      5-min Rain = 0
KPG1 192215Z 35003KT 16/M07 A3028 RMK A01 T01551069  RH  021%=      5-min Rain = 0
KPG1 192216Z 34002KT 16/M07 A3028 RMK A01 T01561070  RH  021%=      5-min Rain = 0
KPG1 192217Z 33001KT 16/M07 A3028 RMK A01 T01551070  RH  021%=      5-min Rain = 0
KPG1 192218Z 07001KT 16/M07 A3028 RMK A01 T01551066  RH  021%=      5-min Rain = 0
KPG1 192219Z 08003KT 16/M07 A3028 RMK A01 T01561068  RH  021%=      5-min Rain = 0
KPG1 192220Z 08003KT 16/M07 A3028 RMK A01 T01561067  RH  021%=      5-min Rain = 0
KPG1 192221Z 14002KT 16/M06 A3028 RMK A01 T01581063  RH  021%=      5-min Rain = 0
KPG1 192222Z 12002KT 16/M06 A3028 RMK A01 T01601061  RH  021%=      5-min Rain = 0
KPG1 192223Z 12003KT 16/M07 A3028 RMK A01 T01611065  RH  021%=      5-min Rain = 0
KPG1 192224Z 07002KT 16/M07 A3028 RMK A01 T01601066  RH  021%=      5-min Rain = 0
KPG1 192225Z 05006KT 16/M07 A3028 RMK A01 T01591066  RH  021%=      5-min Rain = 0
KPG1 192226Z 05006KT 16/M07 A3028 RMK A01 T01581067  RH  021%=      5-min Rain = 0
KPG1 192227Z 05006KT 16/M07 A3028 RMK A01 T01571068  RH  021%=      5-min Rain = 0
KPG1 192228Z 05005KT 16/M07 A3028 RMK A01 T01561067  RH  021%=      5-min Rain = 0
KPG1 192229Z 06006KT 16/M07 A3028 RMK A01 T01551066  RH  021%=      5-min Rain = 0
KPG1 192230Z 05005KT 16/M07 A3028 RMK A01 T01551069  RH  021%=      5-min Rain = 0
KPG1 192231Z 03005KT 15/M07 A3028 RMK A01 T01541069  RH  021%=      5-min Rain = 0
KPG1 192232Z 01005KT 16/M07 A3028 RMK A01 T01551065  RH  021%=      5-min Rain = 0
KPG1 192233Z 00005KT 16/M07 A3028 RMK A01 T01561067  RH  021%=      5-min Rain = 0
KPG1 192234Z 36003KT 16/M07 A3028 RMK A01 T01561068  RH  021%=      5-min Rain = 0
KPG1 192235Z 33004KT 16/M07 A3028 RMK A01 T01561070  RH  021%=      5-min Rain = 0
KPG1 192236Z 34003KT 16/M07 A3028 RMK A01 T01551070  RH  021%=      5-min Rain = 0
KPG1 192237Z 32004KT 16/M07 A3028 RMK A01 T01551068  RH  021%=      5-min Rain = 0
KPG1 192238Z 33005KT 16/M07 A3028 RMK A01 T01551067  RH  021%=      5-min Rain = 0
KPG1 192239Z 31004KT 16/M07 A3028 RMK A01 T01551067  RH  021%=      5-min Rain = 0
KPG1 192240Z 34005KT 16/M07 A3027 RMK A01 T01551066  RH  021%=      5-min Rain = 0
KPG1 192241Z 35005KT 16/M07 A3027 RMK A01 T01551067  RH  021%=      5-min Rain = 0
KPG1 192242Z 00006KT 15/M07 A3027 RMK A01 T01541065  RH  021%=      5-min Rain = 0
KPG1 192243Z 02009KT 16/M06 A3027 RMK A01 T01551059  RH  022%=      5-min Rain = 0
KPG1 192244Z 04009KT 16/M06 A3027 RMK A01 T01571059  RH  022%=      5-min Rain = 0
KPG1 192245Z 05010KT 16/M06 A3028 RMK A01 T01571062  RH  022%=      5-min Rain = 0
KPG1 192246Z 07007KT 16/M06 A3028 RMK A01 T01551064  RH  022%=      5-min Rain = 0
KPG1 192247Z 06005KT 16/M06 A3028 RMK A01 T01551063  RH  022%=      5-min Rain = 0
KPG1 192248Z 06005KT 16/M06 A3028 RMK A01 T01551059  RH  022%=      5-min Rain = 0
KPG1 192249Z 04006KT 16/M06 A3028 RMK A01 T01571058  RH  022%=      5-min Rain = 0
KPG1 192250Z 05004KT 16/M06 A3027 RMK A01 T01571063  RH  021%=      5-min Rain = 0
KPG1 192251Z 06005KT 16/M06 A3027 RMK A01 T01571062  RH  022%=      5-min Rain = 0
KPG1 192252Z 05003KT 16/M07 A3027 RMK A01 T01561065  RH  021%=      5-min Rain = 0
KPG1 192253Z 10002KT 16/M07 A3027 RMK A01 T01561066  RH  021%=      5-min Rain = 0
KPG1 192254Z 10004KT 16/M07 A3027 RMK A01 T01551065  RH  021%=      5-min Rain = 0
KPG1 192255Z 09003KT 16/M07 A3027 RMK A01 T01561067  RH  021%=      5-min Rain = 0
KPG1 192256Z 11003KT 16/M07 A3027 RMK A01 T01561067  RH  021%=      5-min Rain = 0
KPG1 192257Z 08004KT 16/M07 A3027 RMK A01 T01561066  RH  021%=      5-min Rain = 0
KPG1 192258Z 07003KT 16/M07 A3027 RMK A01 T01551068  RH  021%=      5-min Rain = 0
KPG1 192259Z 07003KT 16/M07 A3027 RMK A01 T01551065  RH  021%=      5-min Rain = 0
KPG1 192300Z 05002KT 16/M07 A3027 RMK A01 T01551066  RH  021%=      5-min Rain = 0
KPG1 192301Z 05001KT 16/M07 A3027 RMK A01 T01551067  RH  021%=      5-min Rain = 0
KPG1 192302Z 16002KT 16/M07 A3027 RMK A01 T01551067  RH  021%=      5-min Rain = 0
KPG1 192303Z 16003KT 16/M06 A3027 RMK A01 T01581062  RH  021%=      5-min Rain = 0
KPG1 192304Z 11001KT 16/M06 A3027 RMK A01 T01591059  RH  022%=      5-min Rain = 0
KPG1 192305Z 11000KT 16/M06 A3027 RMK A01 T01601062  RH  021%=      5-min Rain = 0
KPG1 192306Z 24001KT 16/M06 A3027 RMK A01 T01621064  RH  021%=      5-min Rain = 0
KPG1 192307Z 31001KT 16/M07 A3027 RMK A01 T01641065  RH  020%=      5-min Rain = 0
KPG1 192308Z 06002KT 17/M06 A3027 RMK A01 T01651064  RH  020%=      5-min Rain = 0
KPG1 192309Z 04002KT 16/M07 A3028 RMK A01 T01631066  RH  020%=      5-min Rain = 0
KPG1 192310Z 06002KT 16/M07 A3028 RMK A01 T01621066  RH  020%=      5-min Rain = 0
KPG1 192311Z 06002KT 16/M07 A3028 RMK A01 T01591068  RH  020%=      5-min Rain = 0
KPG1 192312Z 07002KT 16/M07 A3028 RMK A01 T01581066  RH  021%=      5-min Rain = 0
KPG1 192313Z 06001KT 16/M07 A3028 RMK A01 T01571066  RH  021%=      5-min Rain = 0
KPG1 192314Z 06001KT 16/M07 A3028 RMK A01 T01571067  RH  021%=      5-min Rain = 0
KPG1 192315Z 27001KT 16/M06 A3028 RMK A01 T01581063  RH  021%=      5-min Rain = 0
KPG1 192316Z 26005KT 16/M06 A3028 RMK A01 T01611061  RH  021%=      5-min Rain = 0
KPG1 192317Z 24004KT 16/M06 A3028 RMK A01 T01621061  RH  021%=      5-min Rain = 0
KPG1 192318Z 26003KT 16/M06 A3028 RMK A01 T01631062  RH  021%=      5-min Rain = 0
KPG1 192319Z 26002KT 16/M06 A3028 RMK A01 T01621064  RH  021%=      5-min Rain = 0
KPG1 192320Z 27003KT 16/M06 A3027 RMK A01 T01611063  RH  021%=      5-min Rain = 0
KPG1 192321Z 27003KT 16/M07 A3027 RMK A01 T01611065  RH  021%=      5-min Rain = 0
KPG1 192322Z 25001KT 16/M07 A3027 RMK A01 T01611065  RH  021%=      5-min Rain = 0
KPG1 192323Z 17002KT 16/M06 A3027 RMK A01 T01611061  RH  021%=      5-min Rain = 0
KPG1 192324Z 15004KT 16/M06 A3027 RMK A01 T01611061  RH  021%=      5-min Rain = 0
KPG1 192325Z 14004KT 16/M06 A3027 RMK A01 T01601062  RH  021%=      5-min Rain = 0
KPG1 192326Z 14002KT 16/M06 A3027 RMK A01 T01591060  RH  022%=      5-min Rain = 0
KPG1 192327Z 20006KT 16/M06 A3027 RMK A01 T01591058  RH  022%=      5-min Rain = 0
KPG1 192328Z 22006KT 16/M06 A3027 RMK A01 T01591061  RH  022%=      5-min Rain = 0
KPG1 192329Z 22005KT 16/M06 A3027 RMK A01 T01591060  RH  022%=      5-min Rain = 0
KPG1 192330Z 20005KT 16/M06 A3027 RMK A01 T01601060  RH  022%=      5-min Rain = 0
KPG1 192331Z 18006KT 16/M06 A3027 RMK A01 T01601056  RH  022%=      5-min Rain = 0
KPG1 192332Z 16004KT 16/M06 A3027 RMK A01 T01601058  RH  022%=      5-min Rain = 0
KPG1 192333Z 17003KT 16/M06 A3027 RMK A01 T01581056  RH  023%=      5-min Rain = 0
KPG1 192334Z 15003KT 16/M06 A3027 RMK A01 T01571055  RH  023%=      5-min Rain = 0
KPG1 192335Z 17004KT 16/M06 A3027 RMK A01 T01571056  RH  023%=      5-min Rain = 0
KPG1 192336Z 17005KT 16/M06 A3027 RMK A01 T01561058  RH  022%=      5-min Rain = 0
KPG1 192337Z 16005KT 16/M06 A3027 RMK A01 T01561057  RH  023%=      5-min Rain = 0
KPG1 192338Z 16007KT 16/M06 A3027 RMK A01 T01561055  RH  023%=      5-min Rain = 0
KPG1 192339Z 15007KT 16/M06 A3027 RMK A01 T01551058  RH  023%=      5-min Rain = 0
KPG1 192340Z 15007KT 15/M06 A3027 RMK A01 T01541059  RH  023%=      5-min Rain = 0
KPG1 192341Z 15007KT 15/M06 A3027 RMK A01 T01531061  RH  022%=      5-min Rain = 0
KPG1 192342Z 15007KT 15/M06 A3027 RMK A01 T01521060  RH  023%=      5-min Rain = 0
KPG1 192343Z 14006KT 15/M06 A3027 RMK A01 T01511059  RH  023%=      5-min Rain = 0
KPG1 192344Z 14005KT 15/M06 A3027 RMK A01 T01511061  RH  023%=      5-min Rain = 0
KPG1 192345Z 15005KT 15/M06 A3027 RMK A01 T01501060  RH  023%=      5-min Rain = 0
KPG1 192346Z 15006KT 15/M06 A3027 RMK A01 T01501057  RH  023%=      5-min Rain = 0
KPG1 192347Z 15006KT 15/M06 A3027 RMK A01 T01501058  RH  023%=      5-min Rain = 0
KPG1 192348Z 15005KT 15/M06 A3027 RMK A01 T01501060  RH  023%=      5-min Rain = 0
KPG1 192349Z 15005KT 15/M06 A3027 RMK A01 T01501060  RH  023%=      5-min Rain = 0
KPG1 192350Z 14007KT 15/M06 A3027 RMK A01 T01501059  RH  023%=      5-min Rain = 0
KPG1 192351Z 15006KT 15/M06 A3027 RMK A01 T01501059  RH  023%=      5-min Rain = 0
KPG1 192352Z 16006KT 15/M06 A3027 RMK A01 T01491060  RH  023%=      5-min Rain = 0
KPG1 192353Z 16006KT 15/M06 A3027 RMK A01 T01491061  RH  023%=      5-min Rain = 0
KPG1 192354Z 16004KT 15/M06 A3027 RMK A01 T01491061  RH  023%=      5-min Rain = 0
KPG1 192355Z 14005KT 15/M06 A3027 RMK A01 T01491062  RH  023%=      5-min Rain = 0
KPG1 192356Z 14003KT 15/M06 A3027 RMK A01 T01491063  RH  023%=      5-min Rain = 0
KPG1 192357Z 16004KT 15/M06 A3027 RMK A01 T01481062  RH  023%=      5-min Rain = 0
KPG1 192358Z 15004KT 15/M06 A3027 RMK A01 T01481061  RH  023%=      5-min Rain = 0
KPG1 192359Z 15004KT 15/M06 A3027 RMK A01 T01481061  RH  023%=      5-min Rain = 0
KPG1 200000Z 14004KT 15/M06 A3027 RMK A01 T01481061  RH  023%=      5-min Rain = 0
KPG1 200001Z 13004KT 15/M06 A3027 RMK A01 T01471060  RH  023%=      5-min Rain = 0
KPG1 200002Z 13004KT 15/M06 A3027 RMK A01 T01471059  RH  024%=      5-min Rain = 0
KPG1 200003Z 12005KT 15/M06 A3027 RMK A01 T01461060  RH  023%=      5-min Rain = 0
KPG1 200004Z 15005KT 15/M06 A3027 RMK A01 T01461061  RH  023%=      5-min Rain = 0
KPG1 200005Z 15006KT 15/M06 A3027 RMK A01 T01461061  RH  023%=      5-min Rain = 0
KPG1 200006Z 15005KT 15/M06 A3027 RMK A01 T01461062  RH  023%=      5-min Rain = 0
KPG1 200007Z 15006KT 15/M06 A3027 RMK A01 T01461060  RH  023%=      5-min Rain = 0
KPG1 200008Z 15006KT 15/M06 A3027 RMK A01 T01451059  RH  024%=      5-min Rain = 0
KPG1 200009Z 16005KT 15/M06 A3027 RMK A01 T01451058  RH  024%=      5-min Rain = 0
KPG1 200010Z 16005KT 14/M06 A3027 RMK A01 T01441060  RH  024%=      5-min Rain = 0
KPG1 200011Z 16005KT 14/M06 A3027 RMK A01 T01441059  RH  024%=      5-min Rain = 0
KPG1 200012Z 16004KT 14/M06 A3028 RMK A01 T01441058  RH  024%=      5-min Rain = 0
KPG1 200013Z 15005KT 14/M06 A3028 RMK A01 T01431057  RH  024%=      5-min Rain = 0
KPG1 200014Z 16004KT 14/M06 A3028 RMK A01 T01421056  RH  025%=      5-min Rain = 0
KPG1 200015Z 16004KT 14/M05 A3028 RMK A01 T01411054  RH  025%=      5-min Rain = 0
KPG1 200016Z 16004KT 14/M05 A3027 RMK A01 T01401053  RH  026%=      5-min Rain = 0
KPG1 200017Z 15004KT 14/M05 A3027 RMK A01 T01391052  RH  026%=      5-min Rain = 0
KPG1 200018Z 15005KT 14/M05 A3027 RMK A01 T01381052  RH  026%=      5-min Rain = 0
KPG1 200019Z 15005KT 14/M05 A3027 RMK A01 T01381053  RH  026%=      5-min Rain = 0
KPG1 200020Z 15004KT 14/M05 A3027 RMK A01 T01371052  RH  026%=      5-min Rain = 0
KPG1 200021Z 15005KT 14/M05 A3027 RMK A01 T01361051  RH  027%=      5-min Rain = 0
KPG1 200022Z 16005KT 14/M05 A3028 RMK A01 T01351050  RH  027%=      5-min Rain = 0
KPG1 200023Z 16005KT 14/M05 A3028 RMK A01 T01351051  RH  027%=      5-min Rain = 0
KPG1 200024Z 16005KT 13/M05 A3028 RMK A01 T01341051  RH  027%=      5-min Rain = 0
KPG1 200025Z 16005KT 13/M05 A3028 RMK A01 T01341051  RH  027%=      5-min Rain = 0
KPG1 200026Z 16004KT 13/M05 A3028 RMK A01 T01331049  RH  028%=      5-min Rain = 0
KPG1 200027Z 16004KT 13/M05 A3028 RMK A01 T01331048  RH  028%=      5-min Rain = 0
KPG1 200028Z 16004KT 13/M05 A3028 RMK A01 T01321048  RH  028%=      5-min Rain = 0
KPG1 200029Z 16003KT 13/M05 A3028 RMK A01 T01321046  RH  029%=      5-min Rain = 0
KPG1 200030Z 16003KT 13/M04 A3028 RMK A01 T01311043  RH  029%=      5-min Rain = 0
KPG1 200031Z 15003KT 13/M05 A3028 RMK A01 T01301045  RH  029%=      5-min Rain = 0
KPG1 200032Z 15003KT 13/M05 A3028 RMK A01 T01291047  RH  029%=      5-min Rain = 0
KPG1 200033Z 15003KT 13/M05 A3028 RMK A01 T01291048  RH  029%=      5-min Rain = 0
KPG1 200034Z 14003KT 13/M05 A3028 RMK A01 T01291050  RH  028%=      5-min Rain = 0
KPG1 200035Z 13001KT 13/M05 A3028 RMK A01 T01301050  RH  028%=      5-min Rain = 0
KPG1 200036Z 13002KT 13/M05 A3028 RMK A01 T01291050  RH  028%=      5-min Rain = 0
KPG1 200037Z 11001KT 13/M05 A3028 RMK A01 T01291051  RH  028%=      5-min Rain = 0
KPG1 200038Z 09001KT 13/M05 A3028 RMK A01 T01301051  RH  028%=      5-min Rain = 0
KPG1 200039Z 11001KT 13/M05 A3028 RMK A01 T01301050  RH  028%=      5-min Rain = 0
KPG1 200040Z 06001KT 13/M05 A3028 RMK A01 T01291051  RH  028%=      5-min Rain = 0
KPG1 200041Z 10001KT 13/M05 A3028 RMK A01 T01291049  RH  029%=      5-min Rain = 0
KPG1 200042Z 09002KT 13/M05 A3028 RMK A01 T01291053  RH  028%=      5-min Rain = 0
KPG1 200043Z 09001KT 13/M05 A3028 RMK A01 T01281054  RH  028%=      5-min Rain = 0
KPG1 200044Z 10002KT 13/M05 A3028 RMK A01 T01281052  RH  028%=      5-min Rain = 0
KPG1 200045Z 09001KT 13/M05 A3028 RMK A01 T01281051  RH  028%=      5-min Rain = 0
KPG1 200046Z 12001KT 13/M05 A3028 RMK A01 T01271050  RH  029%=      5-min Rain = 0
KPG1 200047Z 14000KT 13/M05 A3028 RMK A01 T01251047  RH  030%=      5-min Rain = 0
KPG1 200048Z 14001KT 12/M05 A3028 RMK A01 T01241050  RH  029%=      5-min Rain = 0
KPG1 200049Z 15001KT 12/M05 A3028 RMK A01 T01231054  RH  029%=      5-min Rain = 0
KPG1 200050Z 17001KT 12/M06 A3028 RMK A01 T01241055  RH  028%=      5-min Rain = 0
KPG1 200051Z 20000KT 13/M06 A3028 RMK A01 T01251056  RH  028%=      5-min Rain = 0
KPG1 200052Z 15001KT 13/M06 A3028 RMK A01 T01251056  RH  028%=      5-min Rain = 0
KPG1 200053Z 15002KT 13/M06 A3028 RMK A01 T01261057  RH  028%=      5-min Rain = 0
KPG1 200054Z 14002KT 13/M06 A3028 RMK A01 T01261057  RH  027%=      5-min Rain = 0
KPG1 200055Z 18002KT 13/M06 A3028 RMK A01 T01271056  RH  027%=      5-min Rain = 0
KPG1 200056Z 16001KT 13/M06 A3028 RMK A01 T01281055  RH  028%=      5-min Rain = 0
KPG1 200057Z 17001KT 13/M06 A3028 RMK A01 T01281056  RH  027%=      5-min Rain = 0
KPG1 200058Z 18000KT 13/M06 A3028 RMK A01 T01271055  RH  028%=      5-min Rain = 0
KPG1 200059Z 09000KT 13/M05 A3028 RMK A01 T01271054  RH  028%=      5-min Rain = 0
KPG1 200100Z 15001KT 13/M05 A3028 RMK A01 T01261053  RH  028%=      5-min Rain = 0
KPG1 200101Z 17000KT 13/M06 A3028 RMK A01 T01251056  RH  028%=      5-min Rain = 0
KPG1 200102Z 12001KT 13/M05 A3028 RMK A01 T01251052  RH  029%=      5-min Rain = 0
KPG1 200103Z 00000KT 12/M05 A3028 RMK A01 T01231049  RH  030%=      5-min Rain = 0
KPG1 200104Z 00000KT 12/M05 A3028 RMK A01 T01221050  RH  030%=      5-min Rain = 0
KPG1 200105Z 14000KT 12/M05 A3028 RMK A01 T01211051  RH  030%=      5-min Rain = 0
KPG1 200106Z 16001KT 12/M05 A3028 RMK A01 T01201053  RH  029%=      5-min Rain = 0
KPG1 200107Z 18001KT 12/M05 A3028 RMK A01 T01211053  RH  029%=      5-min Rain = 0
KPG1 200108Z 21000KT 12/M05 A3028 RMK A01 T01211053  RH  029%=      5-min Rain = 0
KPG1 200109Z 18000KT 12/M05 A3028 RMK A01 T01211054  RH  029%=      5-min Rain = 0
KPG1 200110Z 00000KT 12/M05 A3028 RMK A01 T01211053  RH  029%=      5-min Rain = 0
KPG1 200111Z 18001KT 12/M06 A3028 RMK A01 T01221055  RH  029%=      5-min Rain = 0
KPG1 200112Z 17002KT 12/M06 A3028 RMK A01 T01221056  RH  028%=      5-min Rain = 0
KPG1 200113Z 16002KT 12/M06 A3028 RMK A01 T01231057  RH  028%=      5-min Rain = 0
KPG1 200114Z 16003KT 12/M06 A3028 RMK A01 T01241058  RH  028%=      5-min Rain = 0
KPG1 200115Z 17002KT 13/M06 A3028 RMK A01 T01261058  RH  027%=      5-min Rain = 0
KPG1 200116Z 16002KT 13/M06 A3028 RMK A01 T01271058  RH  027%=      5-min Rain = 0
KPG1 200117Z 15001KT 13/M05 A3028 RMK A01 T01281054  RH  028%=      5-min Rain = 0
KPG1 200118Z 15001KT 13/M05 A3028 RMK A01 T01271050  RH  029%=      5-min Rain = 0
KPG1 200119Z 17001KT 13/M05 A3028 RMK A01 T01261051  RH  029%=      5-min Rain = 0
KPG1 200120Z 16002KT 13/M05 A3028 RMK A01 T01251054  RH  028%=      5-min Rain = 0
KPG1 200121Z 16003KT 12/M05 A3028 RMK A01 T01241052  RH  029%=      5-min Rain = 0
KPG1 200122Z 16003KT 12/M05 A3028 RMK A01 T01241053  RH  029%=      5-min Rain = 0
KPG1 200123Z 16004KT 12/M05 A3028 RMK A01 T01241053  RH  029%=      5-min Rain = 0
KPG1 200124Z 16003KT 12/M05 A3028 RMK A01 T01241053  RH  029%=      5-min Rain = 0
KPG1 200125Z 17003KT 12/M05 A3028 RMK A01 T01231052  RH  029%=      5-min Rain = 0
KPG1 200126Z 17002KT 12/M05 A3028 RMK A01 T01221052  RH  029%=      5-min Rain = 0
KPG1 200127Z 17003KT 12/M05 A3028 RMK A01 T01221052  RH  029%=      5-min Rain = 0
KPG1 200128Z 17003KT 12/M05 A3028 RMK A01 T01211052  RH  030%=      5-min Rain = 0
KPG1 200129Z 17003KT 12/M05 A3028 RMK A01 T01201052  RH  030%=      5-min Rain = 0
KPG1 200130Z 18003KT 12/M05 A3028 RMK A01 T01191051  RH  030%=      5-min Rain = 0
KPG1 200131Z 18003KT 12/M05 A3028 RMK A01 T01181051  RH  030%=      5-min Rain = 0
KPG1 200132Z 18003KT 12/M05 A3028 RMK A01 T01181050  RH  031%=      5-min Rain = 0
KPG1 200133Z 17003KT 12/M05 A3028 RMK A01 T01171049  RH  031%=      5-min Rain = 0
KPG1 200134Z 17003KT 12/M05 A3028 RMK A01 T01161049  RH  031%=      5-min Rain = 0
KPG1 200135Z 18002KT 12/M05 A3028 RMK A01 T01151048  RH  031%=      5-min Rain = 0
KPG1 200136Z 18002KT 12/M05 A3028 RMK A01 T01151048  RH  032%=      5-min Rain = 0
KPG1 200137Z 18001KT 11/M05 A3029 RMK A01 T01141048  RH  032%=      5-min Rain = 0
KPG1 200138Z 16002KT 11/M05 A3029 RMK A01 T01141049  RH  032%=      5-min Rain = 0
KPG1 200139Z 16002KT 11/M05 A3028 RMK A01 T01131050  RH  031%=      5-min Rain = 0
KPG1 200140Z 17002KT 11/M05 A3028 RMK A01 T01141051  RH  031%=      5-min Rain = 0
KPG1 200141Z 17002KT 11/M05 A3028 RMK A01 T01141051  RH  031%=      5-min Rain = 0
KPG1 200142Z 17001KT 11/M05 A3029 RMK A01 T01141050  RH  031%=      5-min Rain = 0
KPG1 200143Z 18002KT 11/M05 A3029 RMK A01 T01141050  RH  031%=      5-min Rain = 0
KPG1 200144Z 19001KT 12/M05 A3029 RMK A01 T01151049  RH  032%=      5-min Rain = 0
KPG1 200145Z 19002KT 11/M05 A3029 RMK A01 T01141049  RH  032%=      5-min Rain = 0
KPG1 200146Z 20002KT 11/M05 A3029 RMK A01 T01141048  RH  032%=      5-min Rain = 0
KPG1 200147Z 21002KT 11/M05 A3029 RMK A01 T01141049  RH  032%=      5-min Rain = 0
KPG1 200148Z 19002KT 11/M05 A3029 RMK A01 T01131048  RH  032%=      5-min Rain = 0
KPG1 200149Z 20002KT 11/M05 A3029 RMK A01 T01131049  RH  032%=      5-min Rain = 0
KPG1 200150Z 21002KT 11/M05 A3029 RMK A01 T01131049  RH  032%=      5-min Rain = 0
KPG1 200151Z 18002KT 11/M05 A3029 RMK A01 T01131049  RH  032%=      5-min Rain = 0
KPG1 200152Z 20002KT 11/M05 A3029 RMK A01 T01131049  RH  032%=      5-min Rain = 0
KPG1 200153Z 19002KT 11/M05 A3029 RMK A01 T01131050  RH  032%=      5-min Rain = 0
KPG1 200154Z 20002KT 11/M05 A3029 RMK A01 T01131050  RH  032%=      5-min Rain = 0
KPG1 200155Z 17001KT 11/M05 A3029 RMK A01 T01131049  RH  032%=      5-min Rain = 0
KPG1 200156Z 17002KT 11/M05 A3029 RMK A01 T01131050  RH  032%=      5-min Rain = 0
KPG1 200157Z 17002KT 11/M05 A3029 RMK A01 T01131050  RH  031%=      5-min Rain = 0
KPG1 200158Z 15001KT 11/M05 A3029 RMK A01 T01131049  RH  032%=      5-min Rain = 0
KPG1 200159Z 14002KT 11/M05 A3029 RMK A01 T01141050  RH  031%=      5-min Rain = 0
KPG1 200200Z 11001KT 11/M05 A3029 RMK A01 T01141052  RH  031%=      5-min Rain = 0
KPG1 200201Z 11001KT 11/M05 A3029 RMK A01 T01141051  RH  031%=      5-min Rain = 0
KPG1 200202Z 11002KT 11/M05 A3029 RMK A01 T01141051  RH  031%=      5-min Rain = 0
KPG1 200203Z 12003KT 12/M05 A3029 RMK A01 T01151049  RH  032%=      5-min Rain = 0
KPG1 200204Z 14003KT 11/M05 A3029 RMK A01 T01141049  RH  032%=      5-min Rain = 0
KPG1 200205Z 14003KT 11/M05 A303 RMK A01 T01131047  RH  032%=      5-min Rain = 0
KPG1 200206Z 14004KT 11/M05 A303 RMK A01 T01121047  RH  032%=      5-min Rain = 0
KPG1 200207Z 14005KT 11/M05 A303 RMK A01 T01111047  RH  033%=      5-min Rain = 0
KPG1 200208Z 14005KT 11/M05 A303 RMK A01 T01111047  RH  033%=      5-min Rain = 0
KPG1 200209Z 14005KT 11/M05 A303 RMK A01 T01111046  RH  033%=      5-min Rain = 0
KPG1 200210Z 15005KT 11/M05 A303 RMK A01 T01111046  RH  033%=      5-min Rain = 0
KPG1 200211Z 16004KT 11/M05 A303 RMK A01 T01111046  RH  033%=      5-min Rain = 0
KPG1 200212Z 17004KT 11/M05 A303 RMK A01 T01111045  RH  033%=      5-min Rain = 0
KPG1 200213Z 18005KT 11/M04 A303 RMK A01 T01101042  RH  034%=      5-min Rain = 0
KPG1 200214Z 19005KT 11/M04 A303 RMK A01 T01081042  RH  035%=      5-min Rain = 0
KPG1 200215Z 19006KT 11/M04 A303 RMK A01 T01051040  RH  036%=      5-min Rain = 0
KPG1 200216Z 21005KT 10/M04 A303 RMK A01 T01031041  RH  036%=      5-min Rain = 0
KPG1 200217Z 20005KT 10/M04 A303 RMK A01 T01011040  RH  037%=      5-min Rain = 0
KPG1 200218Z 19005KT 10/M04 A3031 RMK A01 T00991039  RH  038%=      5-min Rain = 0
KPG1 200219Z 19005KT 10/M04 A3031 RMK A01 T00971038  RH  038%=      5-min Rain = 0
KPG1 200220Z 19005KT 10/M04 A3031 RMK A01 T00971038  RH  038%=      5-min Rain = 0
KPG1 200221Z 18007KT 10/M04 A3031 RMK A01 T00971039  RH  038%=      5-min Rain = 0
KPG1 200222Z 18007KT 10/M04 A3031 RMK A01 T00991040  RH  037%=      5-min Rain = 0
KPG1 200223Z 18007KT 10/M04 A3031 RMK A01 T01021039  RH  037%=      5-min Rain = 0
KPG1 200224Z 18007KT 10/M04 A3031 RMK A01 T01031038  RH  037%=      5-min Rain = 0
KPG1 200225Z 19008KT 10/M04 A3031 RMK A01 T01031039  RH  037%=      5-min Rain = 0
KPG1 200226Z 18008KT 10/M04 A3031 RMK A01 T01041037  RH  037%=      5-min Rain = 0
KPG1 200227Z 16007KT 10/M04 A3031 RMK A01 T01031038  RH  037%=      5-min Rain = 0
KPG1 200228Z 15007KT 10/M04 A3031 RMK A01 T01021037  RH  037%=      5-min Rain = 0
KPG1 200229Z 14008KT 10/M04 A3031 RMK A01 T01011036  RH  038%=      5-min Rain = 0
KPG1 200230Z 14008KT 10/M04 A3031 RMK A01 T00991036  RH  038%=      5-min Rain = 0
KPG1 200231Z 14007KT 10/M04 A3031 RMK A01 T00991036  RH  039%=      5-min Rain = 0
KPG1 200232Z 15008KT 10/M04 A3031 RMK A01 T00991037  RH  038%=      5-min Rain = 0
KPG1 200233Z 14008KT 10/M04 A3031 RMK A01 T01001037  RH  038%=      5-min Rain = 0
KPG1 200234Z 14007KT 10/M04 A3031 RMK A01 T01011037  RH  038%=      5-min Rain = 0
KPG1 200235Z 14007KT 10/M04 A303 RMK A01 T01011037  RH  038%=      5-min Rain = 0
KPG1 200236Z 14006KT 10/M04 A303 RMK A01 T01001036  RH  038%=      5-min Rain = 0
KPG1 200237Z 15006KT 10/M04 A303 RMK A01 T01001036  RH  038%=      5-min Rain = 0
KPG1 200238Z 15006KT 10/M04 A303 RMK A01 T00991036  RH  039%=      5-min Rain = 0
KPG1 200239Z 15006KT 10/M04 A3031 RMK A01 T00981035  RH  039%=      5-min Rain = 0
KPG1 200240Z 15006KT 10/M04 A3031 RMK A01 T00981035  RH  039%=      5-min Rain = 0
KPG1 200241Z 17006KT 10/M04 A3031 RMK A01 T00981035  RH  039%=      5-min Rain = 0
KPG1 200242Z 17005KT 10/M04 A3031 RMK A01 T00971035  RH  039%=      5-min Rain = 0
KPG1 200243Z 17005KT 10/M04 A3031 RMK A01 T00971035  RH  039%=      5-min Rain = 0
KPG1 200244Z 17005KT 10/M04 A3031 RMK A01 T00971035  RH  039%=      5-min Rain = 0
KPG1 200245Z 16005KT 10/M03 A3031 RMK A01 T00971034  RH  039%=      5-min Rain = 0
KPG1 200246Z 17005KT 10/M04 A3031 RMK A01 T00971035  RH  039%=      5-min Rain = 0
KPG1 200247Z 15005KT 10/M04 A3031 RMK A01 T00971035  RH  039%=      5-min Rain = 0
KPG1 200248Z 16004KT 10/M04 A3031 RMK A01 T00971035  RH  039%=      5-min Rain = 0
KPG1 200249Z 15004KT 10/M04 A3031 RMK A01 T00961035  RH  039%=      5-min Rain = 0
KPG1 200250Z 16005KT 10/M03 A3031 RMK A01 T00961034  RH  040%=      5-min Rain = 0
KPG1 200251Z 15006KT 10/M03 A3031 RMK A01 T00961034  RH  040%=      5-min Rain = 0
KPG1 200252Z 15006KT 10/M04 A3031 RMK A01 T00961035  RH  039%=      5-min Rain = 0
KPG1 200253Z 16007KT 10/M04 A3031 RMK A01 T00971036  RH  039%=      5-min Rain = 0
KPG1 200254Z 17005KT 10/M04 A3031 RMK A01 T00991036  RH  039%=      5-min Rain = 0
KPG1 200255Z 17005KT 10/M04 A3031 RMK A01 T00991035  RH  039%=      5-min Rain = 0
KPG1 200256Z 17005KT 10/M03 A3031 RMK A01 T00981034  RH  039%=      5-min Rain = 0
KPG1 200257Z 15005KT 10/M04 A3031 RMK A01 T00971035  RH  039%=      5-min Rain = 0
KPG1 200258Z 16006KT 10/M03 A3031 RMK A01 T00971034  RH  039%=      5-min Rain = 0
KPG1 200259Z 15006KT 10/M04 A3031 RMK A01 T00971035  RH  039%=      5-min Rain = 0
KPG1 200300Z 16005KT 10/M04 A3031 RMK A01 T00971035  RH  039%=      5-min Rain = 0
KPG1 200301Z 16005KT 10/M03 A3031 RMK A01 T00971034  RH  040%=      5-min Rain = 0
KPG1 200302Z 15005KT 10/M03 A3031 RMK A01 T00961034  RH  040%=      5-min Rain = 0
KPG1 200303Z 16005KT 10/M03 A3031 RMK A01 T00951034  RH  040%=      5-min Rain = 0
KPG1 200304Z 16007KT 09/M03 A3031 RMK A01 T00941034  RH  040%=      5-min Rain = 0
KPG1 200305Z 16006KT 09/M03 A3031 RMK A01 T00941034  RH  040%=      5-min Rain = 0
KPG1 200306Z 17006KT 09/M03 A3031 RMK A01 T00941034  RH  040%=      5-min Rain = 0
KPG1 200307Z 18004KT 09/M03 A3031 RMK A01 T00941034  RH  040%=      5-min Rain = 0
KPG1 200308Z 18004KT 10/M03 A3031 RMK A01 T00951033  RH  040%=      5-min Rain = 0
KPG1 200309Z 19003KT 09/M03 A3031 RMK A01 T00941032  RH  041%=      5-min Rain = 0
KPG1 200310Z 23004KT 09/M03 A3031 RMK A01 T00911032  RH  042%=      5-min Rain = 0
KPG1 200311Z 25004KT 09/M03 A3031 RMK A01 T00901032  RH  042%=      5-min Rain = 0
KPG1 200312Z 22004KT 09/M03 A3031 RMK A01 T00891032  RH  042%=      5-min Rain = 0
KPG1 200313Z 21004KT 09/M03 A3031 RMK A01 T00891032  RH  042%=      5-min Rain = 0
KPG1 200314Z 21003KT 09/M03 A3031 RMK A01 T00901034  RH  042%=      5-min Rain = 0
KPG1 200315Z 19003KT 09/M03 A3031 RMK A01 T00911033  RH  041%=      5-min Rain = 0
KPG1 200316Z 19003KT 09/M03 A3031 RMK A01 T00911034  RH  041%=      5-min Rain = 0
KPG1 200317Z 20003KT 09/M03 A3031 RMK A01 T00921033  RH  041%=      5-min Rain = 0
KPG1 200318Z 21003KT 09/M03 A3031 RMK A01 T00921033  RH  041%=      5-min Rain = 0
KPG1 200319Z 21003KT 09/M03 A3031 RMK A01 T00911034  RH  041%=      5-min Rain = 0
KPG1 200320Z 21002KT 09/M03 A3031 RMK A01 T00911033  RH  041%=      5-min Rain = 0
KPG1 200321Z 20002KT 09/M03 A3031 RMK A01 T00911034  RH  041%=      5-min Rain = 0
KPG1 200322Z 20003KT 09/M03 A3031 RMK A01 T00911034  RH  041%=      5-min Rain = 0
KPG1 200323Z 22001KT 09/M03 A3031 RMK A01 T00911033  RH  041%=      5-min Rain = 0
KPG1 200324Z 24002KT 09/M03 A3031 RMK A01 T00911032  RH  042%=      5-min Rain = 0
KPG1 200325Z 22002KT 09/M03 A3031 RMK A01 T00901032  RH  042%=      5-min Rain = 0
KPG1 200326Z 21002KT 09/M03 A3031 RMK A01 T00891032  RH  042%=      5-min Rain = 0
KPG1 200327Z 22002KT 09/M03 A3031 RMK A01 T00881032  RH  043%=      5-min Rain = 0
KPG1 200328Z 22003KT 09/M03 A3031 RMK A01 T00871032  RH  043%=      5-min Rain = 0
KPG1 200329Z 21003KT 09/M03 A3031 RMK A01 T00871032  RH  043%=      5-min Rain = 0
KPG1 200330Z 19003KT 09/M03 A3031 RMK A01 T00871033  RH  043%=      5-min Rain = 0
KPG1 200331Z 19003KT 09/M03 A3031 RMK A01 T00871033  RH  043%=      5-min Rain = 0
KPG1 200332Z 18003KT 09/M03 A3031 RMK A01 T00871033  RH  043%=      5-min Rain = 0
KPG1 200333Z 17004KT 09/M03 A3031 RMK A01 T00881033  RH  043%=      5-min Rain = 0
KPG1 200334Z 18004KT 09/M03 A3031 RMK A01 T00881033  RH  043%=      5-min Rain = 0
KPG1 200335Z 18004KT 09/M03 A303 RMK A01 T00881032  RH  043%=      5-min Rain = 0
KPG1 200336Z 19004KT 09/M03 A303 RMK A01 T00881032  RH  043%=      5-min Rain = 0
KPG1 200337Z 18005KT 09/M03 A303 RMK A01 T00871032  RH  043%=      5-min Rain = 0
KPG1 200338Z 17005KT 09/M03 A303 RMK A01 T00871032  RH  043%=      5-min Rain = 0
KPG1 200339Z 18004KT 09/M03 A303 RMK A01 T00871032  RH  043%=      5-min Rain = 0
KPG1 200340Z 18004KT 09/M03 A303 RMK A01 T00871032  RH  043%=      5-min Rain = 0
KPG1 200341Z 18004KT 09/M03 A303 RMK A01 T00871031  RH  043%=      5-min Rain = 0
KPG1 200342Z 18005KT 09/M03 A303 RMK A01 T00851031  RH  044%=      5-min Rain = 0
KPG1 200343Z 18005KT 08/M03 A303 RMK A01 T00841031  RH  044%=      5-min Rain = 0
KPG1 200344Z 18004KT 08/M03 A303 RMK A01 T00841031  RH  044%=      5-min Rain = 0
KPG1 200345Z 19004KT 08/M03 A303 RMK A01 T00841031  RH  044%=      5-min Rain = 0
KPG1 200346Z 20003KT 08/M03 A303 RMK A01 T00841032  RH  044%=      5-min Rain = 0
KPG1 200347Z 20003KT 08/M03 A303 RMK A01 T00841032  RH  044%=      5-min Rain = 0
KPG1 200348Z 20004KT 08/M03 A303 RMK A01 T00831032  RH  044%=      5-min Rain = 0
KPG1 200349Z 20004KT 08/M03 A303 RMK A01 T00841032  RH  044%=      5-min Rain = 0
KPG1 200350Z 21004KT 08/M03 A303 RMK A01 T00831032  RH  044%=      5-min Rain = 0
KPG1 200351Z 22003KT 08/M03 A303 RMK A01 T00831032  RH  044%=      5-min Rain = 0
KPG1 200352Z 22003KT 08/M03 A303 RMK A01 T00831032  RH  044%=      5-min Rain = 0
KPG1 200353Z 22004KT 08/M03 A303 RMK A01 T00821032  RH  044%=      5-min Rain = 0
KPG1 200354Z 22003KT 08/M03 A303 RMK A01 T00831033  RH  044%=      5-min Rain = 0
KPG1 200355Z 21004KT 08/M03 A303 RMK A01 T00841033  RH  043%=      5-min Rain = 0
KPG1 200356Z 21003KT 09/M03 A3031 RMK A01 T00851033  RH  043%=      5-min Rain = 0
KPG1 200357Z 22003KT 09/M03 A303 RMK A01 T00851033  RH  043%=      5-min Rain = 0
KPG1 200358Z 20004KT 09/M03 A303 RMK A01 T00851033  RH  043%=      5-min Rain = 0
KPG1 200359Z 20004KT 09/M03 A303 RMK A01 T00851033  RH  043%=      5-min Rain = 0
KPG1 200400Z 21004KT 09/M03 A303 RMK A01 T00861033  RH  043%=      5-min Rain = 0
KPG1 200401Z 24003KT 09/M03 A3031 RMK A01 T00851033  RH  043%=      5-min Rain = 0
KPG1 200402Z 23003KT 09/M03 A3031 RMK A01 T00851032  RH  044%=      5-min Rain = 0
KPG1 200403Z 23003KT 08/M03 A3031 RMK A01 T00841032  RH  044%=      5-min Rain = 0
KPG1 200404Z 23003KT 08/M03 A3031 RMK A01 T00831032  RH  044%=      5-min Rain = 0
KPG1 200405Z 24003KT 08/M03 A3031 RMK A01 T00831033  RH  044%=      5-min Rain = 0
KPG1 200406Z 25003KT 08/M03 A3031 RMK A01 T00831033  RH  044%=      5-min Rain = 0
KPG1 200407Z 25002KT 08/M03 A3031 RMK A01 T00831033  RH  044%=      5-min Rain = 0
KPG1 200408Z 24002KT 08/M03 A3031 RMK A01 T00841034  RH  043%=      5-min Rain = 0
KPG1 200409Z 24002KT 09/M03 A3031 RMK A01 T00851034  RH  043%=      5-min Rain = 0
KPG1 200410Z 22003KT 09/M04 A3032 RMK A01 T00861035  RH  042%=      5-min Rain = 0
KPG1 200411Z 26003KT 09/M04 A3032 RMK A01 T00871035  RH  042%=      5-min Rain = 0
KPG1 200412Z 25003KT 09/M03 A3032 RMK A01 T00871034  RH  042%=      5-min Rain = 0
KPG1 200413Z 26003KT 09/M04 A3033 RMK A01 T00871035  RH  042%=      5-min Rain = 0
KPG1 200414Z 25003KT 09/M04 A3033 RMK A01 T00891035  RH  042%=      5-min Rain = 0
KPG1 200415Z 26003KT 09/M04 A3033 RMK A01 T00891035  RH  041%=      5-min Rain = 0
KPG1 200416Z 24003KT 09/M04 A3033 RMK A01 T00891035  RH  041%=      5-min Rain = 0
KPG1 200417Z 24003KT 09/M04 A3033 RMK A01 T00901036  RH  041%=      5-min Rain = 0
KPG1 200418Z 23004KT 09/M04 A3033 RMK A01 T00911036  RH  041%=      5-min Rain = 0
KPG1 200419Z 22003KT 09/M04 A3033 RMK A01 T00911037  RH  040%=      5-min Rain = 0
KPG1 200420Z 22003KT 09/M04 A3033 RMK A01 T00921037  RH  040%=      5-min Rain = 0
KPG1 200421Z 22002KT 09/M04 A3033 RMK A01 T00921036  RH  040%=      5-min Rain = 0
KPG1 200422Z 22003KT 09/M04 A3033 RMK A01 T00921036  RH  040%=      5-min Rain = 0
KPG1 200423Z 22003KT 09/M04 A3033 RMK A01 T00911036  RH  040%=      5-min Rain = 0
KPG1 200424Z 22002KT 09/M04 A3033 RMK A01 T00911037  RH  040%=      5-min Rain = 0
KPG1 200425Z 20002KT 09/M03 A3033 RMK A01 T00901034  RH  041%=      5-min Rain = 0
KPG1 200426Z 19002KT 09/M04 A3033 RMK A01 T00891035  RH  041%=      5-min Rain = 0
KPG1 200427Z 18002KT 09/M04 A3033 RMK A01 T00881035  RH  042%=      5-min Rain = 0
KPG1 200428Z 17002KT 09/M04 A3033 RMK A01 T00881035  RH  042%=      5-min Rain = 0
KPG1 200429Z 17001KT 09/M04 A3033 RMK A01 T00871035  RH  042%=      5-min Rain = 0
KPG1 200430Z 15001KT 09/M04 A3033 RMK A01 T00871035  RH  042%=      5-min Rain = 0
KPG1 200431Z 15002KT 09/M03 A3033 RMK A01 T00861034  RH  043%=      5-min Rain = 0
KPG1 200432Z 15002KT 08/M03 A3033 RMK A01 T00841034  RH  043%=      5-min Rain = 0
KPG1 200433Z 16002KT 08/M04 A3033 RMK A01 T00831035  RH  043%=      5-min Rain = 0
KPG1 200434Z 16002KT 08/M04 A3033 RMK A01 T00831035  RH  043%=      5-min Rain = 0
KPG1 200435Z 15002KT 08/M04 A3033 RMK A01 T00831036  RH  043%=      5-min Rain = 0
KPG1 200436Z 14003KT 08/M04 A3033 RMK A01 T00841036  RH  043%=      5-min Rain = 0
KPG1 200437Z 14002KT 09/M04 A3033 RMK A01 T00851037  RH  042%=      5-min Rain = 0
KPG1 200438Z 14002KT 09/M04 A3033 RMK A01 T00861037  RH  042%=      5-min Rain = 0
KPG1 200439Z 10003KT 09/M04 A3033 RMK A01 T00871036  RH  042%=      5-min Rain = 0
KPG1 200440Z 12003KT 09/M04 A3033 RMK A01 T00871036  RH  042%=      5-min Rain = 0
KPG1 200441Z 13003KT 09/M04 A3032 RMK A01 T00861036  RH  042%=      5-min Rain = 0
KPG1 200442Z 14004KT 09/M04 A3032 RMK A01 T00871037  RH  042%=      5-min Rain = 0
KPG1 200443Z 14005KT 09/M04 A3033 RMK A01 T00871037  RH  041%=      5-min Rain = 0
KPG1 200444Z 14003KT 09/M04 A3033 RMK A01 T00891037  RH  041%=      5-min Rain = 0
KPG1 200445Z 13002KT 09/M04 A3034 RMK A01 T00901037  RH  041%=      5-min Rain = 0
KPG1 200446Z 13002KT 09/M04 A3034 RMK A01 T00901036  RH  041%=      5-min Rain = 0
KPG1 200447Z 13002KT 09/M04 A3034 RMK A01 T00891036  RH  041%=      5-min Rain = 0
KPG1 200448Z 14002KT 09/M04 A3034 RMK A01 T00881036  RH  041%=      5-min Rain = 0
KPG1 200449Z 13003KT 09/M04 A3033 RMK A01 T00881036  RH  041%=      5-min Rain = 0
KPG1 200450Z 15001KT 09/M04 A3034 RMK A01 T00871037  RH  041%=      5-min Rain = 0
KPG1 200451Z 11002KT 09/M04 A3034 RMK A01 T00871036  RH  042%=      5-min Rain = 0
KPG1 200452Z 12002KT 09/M04 A3034 RMK A01 T00871037  RH  041%=      5-min Rain = 0
KPG1 200453Z 12002KT 09/M04 A3034 RMK A01 T00871038  RH  041%=      5-min Rain = 0
KPG1 200454Z 12004KT 09/M04 A3034 RMK A01 T00891039  RH  040%=      5-min Rain = 0
KPG1 200455Z 13004KT 09/M04 A3034 RMK A01 T00911038  RH  040%=      5-min Rain = 0
KPG1 200456Z 13004KT 09/M04 A3034 RMK A01 T00921039  RH  039%=      5-min Rain = 0
KPG1 200457Z 14007KT 09/M04 A3033 RMK A01 T00941039  RH  039%=      5-min Rain = 0
KPG1 200458Z 13007KT 10/M04 A3033 RMK A01 T00961040  RH  038%=      5-min Rain = 0
KPG1 200459Z 13006KT 10/M04 A3033 RMK A01 T00971040  RH  038%=      5-min Rain = 0
KPG1 200500Z 13004KT 10/M04 A3033 RMK A01 T00981040  RH  038%=      5-min Rain = 0
KPG1 200501Z 14006KT 10/M04 A3033 RMK A01 T00981040  RH  038%=      5-min Rain = 0
KPG1 200502Z 13005KT 10/M04 A3033 RMK A01 T00981039  RH  038%=      5-min Rain = 0
KPG1 200503Z 13005KT 10/M04 A3033 RMK A01 T00971040  RH  038%=      5-min Rain = 0
KPG1 200504Z 13004KT 10/M04 A3033 RMK A01 T00971040  RH  038%=      5-min Rain = 0
KPG1 200505Z 13006KT 10/M04 A3033 RMK A01 T00971040  RH  038%=      5-min Rain = 0
KPG1 200506Z 14007KT 10/M04 A3033 RMK A01 T00981041  RH  037%=      5-min Rain = 0
KPG1 200507Z 15007KT 10/M04 A3033 RMK A01 T00991042  RH  037%=      5-min Rain = 0
KPG1 200508Z 15007KT 10/M04 A3033 RMK A01 T01021042  RH  036%=      5-min Rain = 0
KPG1 200509Z 15006KT 10/M04 A3033 RMK A01 T01021042  RH  036%=      5-min Rain = 0
KPG1 200510Z 15007KT 10/M04 A3033 RMK A01 T01021043  RH  036%=      5-min Rain = 0
KPG1 200511Z 14006KT 10/M04 A3033 RMK A01 T01021043  RH  036%=      5-min Rain = 0
KPG1 200512Z 14004KT 10/M04 A3033 RMK A01 T01031043  RH  035%=      5-min Rain = 0
KPG1 200513Z 15004KT 10/M04 A3033 RMK A01 T01031042  RH  036%=      5-min Rain = 0
KPG1 200514Z 15003KT 10/M04 A3033 RMK A01 T01021041  RH  036%=      5-min Rain = 0
KPG1 200515Z 15004KT 10/M04 A3033 RMK A01 T01001041  RH  037%=      5-min Rain = 0
KPG1 200516Z 17002KT 10/M04 A3033 RMK A01 T00991041  RH  037%=      5-min Rain = 0
KPG1 200517Z 20002KT 10/M04 A3033 RMK A01 T00981041  RH  037%=      5-min Rain = 0
KPG1 200518Z 20002KT 10/M04 A3033 RMK A01 T00961041  RH  038%=      5-min Rain = 0
KPG1 200519Z 20003KT 09/M04 A3033 RMK A01 T00941040  RH  038%=      5-min Rain = 0
KPG1 200520Z 18003KT 09/M04 A3033 RMK A01 T00931040  RH  039%=      5-min Rain = 0
KPG1 200521Z 19003KT 09/M04 A3033 RMK A01 T00931040  RH  039%=      5-min Rain = 0
KPG1 200522Z 20003KT 09/M04 A3033 RMK A01 T00921040  RH  039%=      5-min Rain = 0
KPG1 200523Z 19004KT 09/M04 A3033 RMK A01 T00921040  RH  039%=      5-min Rain = 0
KPG1 200524Z 19004KT 09/M04 A3033 RMK A01 T00921040  RH  039%=      5-min Rain = 0
KPG1 200525Z 19004KT 09/M04 A3034 RMK A01 T00911039  RH  040%=      5-min Rain = 0
KPG1 200526Z 20003KT 09/M04 A3034 RMK A01 T00901038  RH  040%=      5-min Rain = 0
KPG1 200527Z 22002KT 09/M04 A3034 RMK A01 T00871037  RH  041%=      5-min Rain = 0
KPG1 200528Z 24002KT 09/M04 A3035 RMK A01 T00851037  RH  042%=      5-min Rain = 0
KPG1 200529Z 23002KT 08/M04 A3034 RMK A01 T00831037  RH  042%=      5-min Rain = 0
KPG1 200530Z 24002KT 08/M04 A3034 RMK A01 T00831037  RH  042%=      5-min Rain = 0
KPG1 200531Z 20003KT 08/M04 A3034 RMK A01 T00831037  RH  043%=      5-min Rain = 0
KPG1 200532Z 24002KT 08/M04 A3034 RMK A01 T00821037  RH  043%=      5-min Rain = 0
KPG1 200533Z 25003KT 08/M04 A3034 RMK A01 T00821037  RH  043%=      5-min Rain = 0
KPG1 200534Z 26003KT 08/M04 A3034 RMK A01 T00811036  RH  043%=      5-min Rain = 0
KPG1 200535Z 24003KT 08/M04 A3034 RMK A01 T00811035  RH  044%=      5-min Rain = 0
KPG1 200536Z 25003KT 08/M04 A3034 RMK A01 T00801036  RH  044%=      5-min Rain = 0
KPG1 200537Z 24003KT 08/M04 A3035 RMK A01 T00801036  RH  044%=      5-min Rain = 0
KPG1 200538Z 23002KT 08/M04 A3034 RMK A01 T00801036  RH  044%=      5-min Rain = 0
KPG1 200539Z 22003KT 08/M04 A3034 RMK A01 T00811036  RH  043%=      5-min Rain = 0
KPG1 200540Z 22003KT 08/M04 A3034 RMK A01 T00811036  RH  043%=      5-min Rain = 0
KPG1 200541Z 21003KT 08/M04 A3034 RMK A01 T00821035  RH  043%=      5-min Rain = 0
KPG1 200542Z 19002KT 08/M04 A3034 RMK A01 T00801035  RH  044%=      5-min Rain = 0
KPG1 200543Z 21003KT 08/M04 A3034 RMK A01 T00791035  RH  044%=      5-min Rain = 0
KPG1 200544Z 18004KT 08/M04 A3034 RMK A01 T00781036  RH  044%=      5-min Rain = 0
KPG1 200545Z 20002KT 08/M04 A3034 RMK A01 T00791036  RH  044%=      5-min Rain = 0
KPG1 200546Z 23002KT 08/M04 A3035 RMK A01 T00801036  RH  044%=      5-min Rain = 0
KPG1 200547Z 23003KT 08/M04 A3035 RMK A01 T00801035  RH  044%=      5-min Rain = 0
KPG1 200548Z 21003KT 08/M04 A3034 RMK A01 T00791036  RH  044%=      5-min Rain = 0
KPG1 200549Z 21003KT 08/M04 A3034 RMK A01 T00801037  RH  044%=      5-min Rain = 0
KPG1 200550Z 19003KT 08/M04 A3034 RMK A01 T00811037  RH  043%=      5-min Rain = 0
KPG1 200551Z 22003KT 08/M04 A3034 RMK A01 T00821037  RH  043%=      5-min Rain = 0
KPG1 200552Z 21003KT 08/M04 A3034 RMK A01 T00831037  RH  043%=      5-min Rain = 0
KPG1 200553Z 20003KT 08/M04 A3034 RMK A01 T00821035  RH  043%=      5-min Rain = 0
KPG1 200554Z 19004KT 08/M04 A3034 RMK A01 T00811035  RH  044%=      5-min Rain = 0
KPG1 200555Z 19004KT 08/M04 A3035 RMK A01 T00801035  RH  044%=      5-min Rain = 0
KPG1 200556Z 18004KT 08/M04 A3035 RMK A01 T00791035  RH  044%=      5-min Rain = 0
KPG1 200557Z 20003KT 08/M04 A3034 RMK A01 T00791036  RH  044%=      5-min Rain = 0
KPG1 200558Z 20004KT 08/M04 A3034 RMK A01 T00791035  RH  044%=      5-min Rain = 0
KPG1 200559Z 21004KT 08/M03 A3034 RMK A01 T00771034  RH  045%=      5-min Rain = 0

Page generated in 0.1723 seconds.